<?xml version="1.0" encoding="UTF-8" standalone="no" ?>
<gpx xmlns="http://www.topografix.com/GPX/1/1" xmlns:xsi="http://www.w3.org/2001/XMLSchema-instance" xsi:schemaLocation="http://www.topografix.com/GPX/1/1 http://www.topografix.com/GPX/1/1/gpx.xsd" version="1.1" creator="VisuGPX - https://www.visugpx.com">
  <metadata>
    <name>24 03 19 VTT</name>
    <desc><![CDATA[24 03 19 randonnée VTT, près de BRAS]]></desc>
  </metadata>
  <trk>
    <name><![CDATA[2018-12-27 12:59:17]]></name>
    <trkseg>
      <trkpt lat="43.24361" lon="6.00074">
        <ele>74.64</ele>
        <time>2018-12-27T09:42:32Z</time>
      </trkpt>
      <trkpt lat="43.24365" lon="6.0007">
        <ele>78</ele>
        <time>2018-12-27T09:42:33Z</time>
      </trkpt>
      <trkpt lat="43.24366" lon="6.00069">
        <ele>80.89</ele>
        <time>2018-12-27T09:42:34Z</time>
      </trkpt>
      <trkpt lat="43.24367" lon="6.00067">
        <ele>84.25</ele>
        <time>2018-12-27T09:42:35Z</time>
      </trkpt>
      <trkpt lat="43.2437" lon="6.00065">
        <ele>89.54</ele>
        <time>2018-12-27T09:42:37Z</time>
      </trkpt>
      <trkpt lat="43.24371" lon="6.00064">
        <ele>94.35</ele>
        <time>2018-12-27T09:42:39Z</time>
      </trkpt>
      <trkpt lat="43.24373" lon="6.00063">
        <ele>99.15</ele>
        <time>2018-12-27T09:42:41Z</time>
      </trkpt>
      <trkpt lat="43.24373" lon="6.00062">
        <ele>103</ele>
        <time>2018-12-27T09:42:43Z</time>
      </trkpt>
      <trkpt lat="43.24372" lon="6.00064">
        <ele>106.84</ele>
        <time>2018-12-27T09:42:45Z</time>
      </trkpt>
      <trkpt lat="43.24371" lon="6.00065">
        <ele>110.21</ele>
        <time>2018-12-27T09:42:47Z</time>
      </trkpt>
      <trkpt lat="43.2437" lon="6.00066">
        <ele>113.57</ele>
        <time>2018-12-27T09:42:49Z</time>
      </trkpt>
      <trkpt lat="43.2437" lon="6.00066">
        <ele>117.9</ele>
        <time>2018-12-27T09:42:51Z</time>
      </trkpt>
      <trkpt lat="43.24369" lon="6.00065">
        <ele>120.78</ele>
        <time>2018-12-27T09:42:54Z</time>
      </trkpt>
      <trkpt lat="43.24369" lon="6.00065">
        <ele>123.67</ele>
        <time>2018-12-27T09:42:56Z</time>
      </trkpt>
      <trkpt lat="43.24369" lon="6.00064">
        <ele>127.03</ele>
        <time>2018-12-27T09:43:07Z</time>
      </trkpt>
      <trkpt lat="43.24371" lon="6.00063">
        <ele>130.4</ele>
        <time>2018-12-27T09:43:10Z</time>
      </trkpt>
      <trkpt lat="43.24374" lon="6.00061">
        <ele>133.76</ele>
        <time>2018-12-27T09:43:14Z</time>
      </trkpt>
      <trkpt lat="43.24376" lon="6.00059">
        <ele>137.61</ele>
        <time>2018-12-27T09:43:18Z</time>
      </trkpt>
      <trkpt lat="43.24376" lon="6.00059">
        <ele>138.57</ele>
        <time>2018-12-27T09:43:20Z</time>
      </trkpt>
      <trkpt lat="43.24379" lon="6.00058">
        <ele>141.45</ele>
        <time>2018-12-27T09:43:25Z</time>
      </trkpt>
      <trkpt lat="43.24382" lon="6.00056">
        <ele>142.89</ele>
        <time>2018-12-27T09:43:28Z</time>
      </trkpt>
      <trkpt lat="43.24393" lon="6.00049">
        <ele>145.78</ele>
        <time>2018-12-27T09:43:41Z</time>
      </trkpt>
      <trkpt lat="43.24408" lon="6.00043">
        <ele>147.22</ele>
        <time>2018-12-27T09:43:57Z</time>
      </trkpt>
      <trkpt lat="43.24428" lon="6.00039">
        <ele>147.7</ele>
        <time>2018-12-27T09:44:17Z</time>
      </trkpt>
      <trkpt lat="43.24429" lon="6.0004">
        <ele>147.7</ele>
        <time>2018-12-27T09:44:18Z</time>
      </trkpt>
      <trkpt lat="43.24434" lon="6.00039">
        <ele>146.26</ele>
        <time>2018-12-27T09:44:24Z</time>
      </trkpt>
      <trkpt lat="43.24445" lon="6.00036">
        <ele>145.78</ele>
        <time>2018-12-27T09:44:36Z</time>
      </trkpt>
      <trkpt lat="43.24456" lon="6.00034">
        <ele>144.82</ele>
        <time>2018-12-27T09:44:46Z</time>
      </trkpt>
      <trkpt lat="43.24464" lon="6.00035">
        <ele>143.85</ele>
        <time>2018-12-27T09:44:58Z</time>
      </trkpt>
      <trkpt lat="43.24466" lon="6.00036">
        <ele>144.82</ele>
        <time>2018-12-27T09:45:01Z</time>
      </trkpt>
      <trkpt lat="43.2447" lon="6.00036">
        <ele>144.82</ele>
        <time>2018-12-27T09:45:05Z</time>
      </trkpt>
      <trkpt lat="43.24488" lon="6.00039">
        <ele>145.3</ele>
        <time>2018-12-27T09:45:18Z</time>
      </trkpt>
      <trkpt lat="43.24503" lon="6.00028">
        <ele>145.3</ele>
        <time>2018-12-27T09:45:30Z</time>
      </trkpt>
      <trkpt lat="43.24512" lon="6.00019">
        <ele>145.78</ele>
        <time>2018-12-27T09:45:45Z</time>
      </trkpt>
      <trkpt lat="43.24514" lon="6.00018">
        <ele>145.78</ele>
        <time>2018-12-27T09:45:57Z</time>
      </trkpt>
      <trkpt lat="43.24503" lon="5.9999">
        <ele>146.74</ele>
        <time>2018-12-27T09:46:19Z</time>
      </trkpt>
      <trkpt lat="43.24504" lon="5.99972">
        <ele>146.74</ele>
        <time>2018-12-27T09:46:29Z</time>
      </trkpt>
      <trkpt lat="43.24493" lon="5.99933">
        <ele>147.22</ele>
        <time>2018-12-27T09:46:51Z</time>
      </trkpt>
      <trkpt lat="43.24491" lon="5.99931">
        <ele>147.22</ele>
        <time>2018-12-27T09:46:53Z</time>
      </trkpt>
      <trkpt lat="43.24483" lon="5.99926">
        <ele>145.78</ele>
        <time>2018-12-27T09:47:07Z</time>
      </trkpt>
      <trkpt lat="43.2448" lon="5.99927">
        <ele>146.74</ele>
        <time>2018-12-27T09:47:10Z</time>
      </trkpt>
      <trkpt lat="43.24477" lon="5.9993">
        <ele>146.74</ele>
        <time>2018-12-27T09:47:14Z</time>
      </trkpt>
      <trkpt lat="43.24475" lon="5.99938">
        <ele>143.85</ele>
        <time>2018-12-27T09:47:18Z</time>
      </trkpt>
      <trkpt lat="43.24474" lon="5.99941">
        <ele>147.7</ele>
        <time>2018-12-27T09:47:20Z</time>
      </trkpt>
      <trkpt lat="43.24473" lon="5.99946">
        <ele>146.26</ele>
        <time>2018-12-27T09:47:22Z</time>
      </trkpt>
      <trkpt lat="43.24471" lon="5.99949">
        <ele>147.7</ele>
        <time>2018-12-27T09:47:24Z</time>
      </trkpt>
      <trkpt lat="43.24469" lon="5.99952">
        <ele>146.26</ele>
        <time>2018-12-27T09:47:26Z</time>
      </trkpt>
      <trkpt lat="43.24457" lon="5.99923">
        <ele>147.7</ele>
        <time>2018-12-27T09:47:44Z</time>
      </trkpt>
      <trkpt lat="43.24461" lon="5.99888">
        <ele>147.7</ele>
        <time>2018-12-27T09:48:05Z</time>
      </trkpt>
      <trkpt lat="43.24462" lon="5.99884">
        <ele>148.18</ele>
        <time>2018-12-27T09:48:31Z</time>
      </trkpt>
      <trkpt lat="43.24464" lon="5.99865">
        <ele>149.62</ele>
        <time>2018-12-27T09:48:50Z</time>
      </trkpt>
      <trkpt lat="43.24464" lon="5.99855">
        <ele>151.06</ele>
        <time>2018-12-27T09:48:56Z</time>
      </trkpt>
      <trkpt lat="43.24466" lon="5.99845">
        <ele>152.99</ele>
        <time>2018-12-27T09:49:11Z</time>
      </trkpt>
      <trkpt lat="43.2447" lon="5.99845">
        <ele>153.95</ele>
        <time>2018-12-27T09:49:15Z</time>
      </trkpt>
      <trkpt lat="43.24486" lon="5.99856">
        <ele>156.35</ele>
        <time>2018-12-27T09:49:30Z</time>
      </trkpt>
      <trkpt lat="43.24492" lon="5.99853">
        <ele>156.35</ele>
        <time>2018-12-27T09:49:34Z</time>
      </trkpt>
      <trkpt lat="43.24504" lon="5.99848">
        <ele>157.79</ele>
        <time>2018-12-27T09:49:47Z</time>
      </trkpt>
      <trkpt lat="43.24522" lon="5.9987">
        <ele>158.75</ele>
        <time>2018-12-27T09:50:06Z</time>
      </trkpt>
      <trkpt lat="43.24537" lon="5.9987">
        <ele>160.2</ele>
        <time>2018-12-27T09:50:22Z</time>
      </trkpt>
      <trkpt lat="43.24552" lon="5.99859">
        <ele>162.6</ele>
        <time>2018-12-27T09:50:42Z</time>
      </trkpt>
      <trkpt lat="43.24563" lon="5.9985">
        <ele>163.56</ele>
        <time>2018-12-27T09:50:57Z</time>
      </trkpt>
      <trkpt lat="43.24576" lon="5.99835">
        <ele>165.48</ele>
        <time>2018-12-27T09:51:15Z</time>
      </trkpt>
      <trkpt lat="43.24587" lon="5.99823">
        <ele>165.96</ele>
        <time>2018-12-27T09:51:35Z</time>
      </trkpt>
      <trkpt lat="43.24602" lon="5.99812">
        <ele>166.45</ele>
        <time>2018-12-27T09:51:53Z</time>
      </trkpt>
      <trkpt lat="43.24622" lon="5.99797">
        <ele>167.89</ele>
        <time>2018-12-27T09:52:14Z</time>
      </trkpt>
      <trkpt lat="43.24632" lon="5.99793">
        <ele>166.45</ele>
        <time>2018-12-27T09:52:28Z</time>
      </trkpt>
      <trkpt lat="43.24634" lon="5.99793">
        <ele>165.96</ele>
        <time>2018-12-27T09:52:37Z</time>
      </trkpt>
      <trkpt lat="43.24645" lon="5.99783">
        <ele>166.93</ele>
        <time>2018-12-27T09:52:54Z</time>
      </trkpt>
      <trkpt lat="43.24661" lon="5.99768">
        <ele>164.52</ele>
        <time>2018-12-27T09:53:13Z</time>
      </trkpt>
      <trkpt lat="43.24661" lon="5.99767">
        <ele>164.52</ele>
        <time>2018-12-27T09:53:14Z</time>
      </trkpt>
      <trkpt lat="43.24663" lon="5.99766">
        <ele>166.45</ele>
        <time>2018-12-27T09:53:16Z</time>
      </trkpt>
      <trkpt lat="43.24671" lon="5.99763">
        <ele>165.48</ele>
        <time>2018-12-27T09:53:29Z</time>
      </trkpt>
      <trkpt lat="43.2468" lon="5.99753">
        <ele>165.48</ele>
        <time>2018-12-27T09:53:39Z</time>
      </trkpt>
      <trkpt lat="43.24682" lon="5.99749">
        <ele>167.41</ele>
        <time>2018-12-27T09:53:42Z</time>
      </trkpt>
      <trkpt lat="43.24691" lon="5.99739">
        <ele>165.96</ele>
        <time>2018-12-27T09:53:48Z</time>
      </trkpt>
      <trkpt lat="43.24703" lon="5.99718">
        <ele>167.89</ele>
        <time>2018-12-27T09:54:07Z</time>
      </trkpt>
      <trkpt lat="43.24714" lon="5.997">
        <ele>167.89</ele>
        <time>2018-12-27T09:54:22Z</time>
      </trkpt>
      <trkpt lat="43.24732" lon="5.99688">
        <ele>167.89</ele>
        <time>2018-12-27T09:54:40Z</time>
      </trkpt>
      <trkpt lat="43.24754" lon="5.9968">
        <ele>168.85</ele>
        <time>2018-12-27T09:55:00Z</time>
      </trkpt>
      <trkpt lat="43.24774" lon="5.99679">
        <ele>168.85</ele>
        <time>2018-12-27T09:55:19Z</time>
      </trkpt>
      <trkpt lat="43.24794" lon="5.99682">
        <ele>169.33</ele>
        <time>2018-12-27T09:55:35Z</time>
      </trkpt>
      <trkpt lat="43.24806" lon="5.99681">
        <ele>169.33</ele>
        <time>2018-12-27T09:55:44Z</time>
      </trkpt>
      <trkpt lat="43.24815" lon="5.99679">
        <ele>169.33</ele>
        <time>2018-12-27T09:55:53Z</time>
      </trkpt>
      <trkpt lat="43.24833" lon="5.99679">
        <ele>169.33</ele>
        <time>2018-12-27T09:56:06Z</time>
      </trkpt>
      <trkpt lat="43.24852" lon="5.9968">
        <ele>170.29</ele>
        <time>2018-12-27T09:56:24Z</time>
      </trkpt>
      <trkpt lat="43.24857" lon="5.9968">
        <ele>170.77</ele>
        <time>2018-12-27T09:56:29Z</time>
      </trkpt>
      <trkpt lat="43.2488" lon="5.99673">
        <ele>173.17</ele>
        <time>2018-12-27T09:56:46Z</time>
      </trkpt>
      <trkpt lat="43.24896" lon="5.99672">
        <ele>173.66</ele>
        <time>2018-12-27T09:57:01Z</time>
      </trkpt>
      <trkpt lat="43.24918" lon="5.9967">
        <ele>173.66</ele>
        <time>2018-12-27T09:57:21Z</time>
      </trkpt>
      <trkpt lat="43.2494" lon="5.99665">
        <ele>173.66</ele>
        <time>2018-12-27T09:57:41Z</time>
      </trkpt>
      <trkpt lat="43.24942" lon="5.99665">
        <ele>172.21</ele>
        <time>2018-12-27T09:57:43Z</time>
      </trkpt>
      <trkpt lat="43.24961" lon="5.9965">
        <ele>171.73</ele>
        <time>2018-12-27T09:57:59Z</time>
      </trkpt>
      <trkpt lat="43.24964" lon="5.99631">
        <ele>171.73</ele>
        <time>2018-12-27T09:58:11Z</time>
      </trkpt>
      <trkpt lat="43.24966" lon="5.99602">
        <ele>172.21</ele>
        <time>2018-12-27T09:58:30Z</time>
      </trkpt>
      <trkpt lat="43.24963" lon="5.99588">
        <ele>173.17</ele>
        <time>2018-12-27T09:58:39Z</time>
      </trkpt>
      <trkpt lat="43.24963" lon="5.99555">
        <ele>174.62</ele>
        <time>2018-12-27T09:58:56Z</time>
      </trkpt>
      <trkpt lat="43.24966" lon="5.99525">
        <ele>174.62</ele>
        <time>2018-12-27T09:59:15Z</time>
      </trkpt>
      <trkpt lat="43.2497" lon="5.99494">
        <ele>174.62</ele>
        <time>2018-12-27T09:59:36Z</time>
      </trkpt>
      <trkpt lat="43.24973" lon="5.99465">
        <ele>175.1</ele>
        <time>2018-12-27T09:59:56Z</time>
      </trkpt>
      <trkpt lat="43.24979" lon="5.9944">
        <ele>175.58</ele>
        <time>2018-12-27T10:00:13Z</time>
      </trkpt>
      <trkpt lat="43.24988" lon="5.99417">
        <ele>176.06</ele>
        <time>2018-12-27T10:00:31Z</time>
      </trkpt>
      <trkpt lat="43.24999" lon="5.99398">
        <ele>176.06</ele>
        <time>2018-12-27T10:00:48Z</time>
      </trkpt>
      <trkpt lat="43.25014" lon="5.99374">
        <ele>176.54</ele>
        <time>2018-12-27T10:01:07Z</time>
      </trkpt>
      <trkpt lat="43.2503" lon="5.99351">
        <ele>176.54</ele>
        <time>2018-12-27T10:01:25Z</time>
      </trkpt>
      <trkpt lat="43.25043" lon="5.99335">
        <ele>175.58</ele>
        <time>2018-12-27T10:01:38Z</time>
      </trkpt>
      <trkpt lat="43.25049" lon="5.99327">
        <ele>175.58</ele>
        <time>2018-12-27T10:01:46Z</time>
      </trkpt>
      <trkpt lat="43.25051" lon="5.99326">
        <ele>175.58</ele>
        <time>2018-12-27T10:01:47Z</time>
      </trkpt>
      <trkpt lat="43.25065" lon="5.99314">
        <ele>175.58</ele>
        <time>2018-12-27T10:02:00Z</time>
      </trkpt>
      <trkpt lat="43.25078" lon="5.99303">
        <ele>175.58</ele>
        <time>2018-12-27T10:02:15Z</time>
      </trkpt>
      <trkpt lat="43.25088" lon="5.99297">
        <ele>175.58</ele>
        <time>2018-12-27T10:02:25Z</time>
      </trkpt>
      <trkpt lat="43.25089" lon="5.99297">
        <ele>175.58</ele>
        <time>2018-12-27T10:02:26Z</time>
      </trkpt>
      <trkpt lat="43.251" lon="5.99295">
        <ele>175.58</ele>
        <time>2018-12-27T10:02:35Z</time>
      </trkpt>
      <trkpt lat="43.25102" lon="5.99295">
        <ele>175.58</ele>
        <time>2018-12-27T10:02:36Z</time>
      </trkpt>
      <trkpt lat="43.25104" lon="5.99294">
        <ele>175.58</ele>
        <time>2018-12-27T10:02:37Z</time>
      </trkpt>
      <trkpt lat="43.25118" lon="5.99289">
        <ele>176.54</ele>
        <time>2018-12-27T10:02:49Z</time>
      </trkpt>
      <trkpt lat="43.25127" lon="5.99288">
        <ele>176.54</ele>
        <time>2018-12-27T10:02:57Z</time>
      </trkpt>
      <trkpt lat="43.25142" lon="5.99279">
        <ele>176.54</ele>
        <time>2018-12-27T10:03:09Z</time>
      </trkpt>
      <trkpt lat="43.25152" lon="5.9928">
        <ele>176.54</ele>
        <time>2018-12-27T10:03:24Z</time>
      </trkpt>
      <trkpt lat="43.25159" lon="5.99277">
        <ele>176.54</ele>
        <time>2018-12-27T10:03:40Z</time>
      </trkpt>
      <trkpt lat="43.25173" lon="5.99269">
        <ele>177.02</ele>
        <time>2018-12-27T10:03:54Z</time>
      </trkpt>
      <trkpt lat="43.25173" lon="5.99268">
        <ele>177.02</ele>
        <time>2018-12-27T10:03:55Z</time>
      </trkpt>
      <trkpt lat="43.25182" lon="5.99258">
        <ele>176.54</ele>
        <time>2018-12-27T10:04:07Z</time>
      </trkpt>
      <trkpt lat="43.25183" lon="5.99257">
        <ele>176.54</ele>
        <time>2018-12-27T10:04:08Z</time>
      </trkpt>
      <trkpt lat="43.25184" lon="5.99254">
        <ele>178.46</ele>
        <time>2018-12-27T10:04:10Z</time>
      </trkpt>
      <trkpt lat="43.25188" lon="5.99249">
        <ele>176.54</ele>
        <time>2018-12-27T10:04:14Z</time>
      </trkpt>
      <trkpt lat="43.2519" lon="5.99247">
        <ele>178.46</ele>
        <time>2018-12-27T10:04:16Z</time>
      </trkpt>
      <trkpt lat="43.25193" lon="5.99244">
        <ele>177.02</ele>
        <time>2018-12-27T10:04:19Z</time>
      </trkpt>
      <trkpt lat="43.25195" lon="5.99243">
        <ele>177.02</ele>
        <time>2018-12-27T10:04:20Z</time>
      </trkpt>
      <trkpt lat="43.25218" lon="5.99223">
        <ele>176.54</ele>
        <time>2018-12-27T10:04:42Z</time>
      </trkpt>
      <trkpt lat="43.25219" lon="5.99221">
        <ele>177.98</ele>
        <time>2018-12-27T10:04:44Z</time>
      </trkpt>
      <trkpt lat="43.25224" lon="5.99209">
        <ele>177.5</ele>
        <time>2018-12-27T10:04:53Z</time>
      </trkpt>
      <trkpt lat="43.25226" lon="5.99204">
        <ele>178.46</ele>
        <time>2018-12-27T10:04:57Z</time>
      </trkpt>
      <trkpt lat="43.2523" lon="5.99199">
        <ele>177.02</ele>
        <time>2018-12-27T10:05:01Z</time>
      </trkpt>
      <trkpt lat="43.25233" lon="5.99195">
        <ele>178.46</ele>
        <time>2018-12-27T10:05:05Z</time>
      </trkpt>
      <trkpt lat="43.2524" lon="5.99191">
        <ele>176.54</ele>
        <time>2018-12-27T10:05:10Z</time>
      </trkpt>
      <trkpt lat="43.25259" lon="5.99175">
        <ele>177.5</ele>
        <time>2018-12-27T10:05:28Z</time>
      </trkpt>
      <trkpt lat="43.25275" lon="5.99141">
        <ele>177.98</ele>
        <time>2018-12-27T10:05:54Z</time>
      </trkpt>
      <trkpt lat="43.25279" lon="5.99127">
        <ele>176.54</ele>
        <time>2018-12-27T10:06:03Z</time>
      </trkpt>
      <trkpt lat="43.2528" lon="5.99124">
        <ele>178.46</ele>
        <time>2018-12-27T10:06:05Z</time>
      </trkpt>
      <trkpt lat="43.25283" lon="5.99117">
        <ele>177.02</ele>
        <time>2018-12-27T10:06:10Z</time>
      </trkpt>
      <trkpt lat="43.25286" lon="5.99115">
        <ele>178.46</ele>
        <time>2018-12-27T10:06:12Z</time>
      </trkpt>
      <trkpt lat="43.25289" lon="5.99112">
        <ele>177.5</ele>
        <time>2018-12-27T10:06:15Z</time>
      </trkpt>
      <trkpt lat="43.2529" lon="5.99109">
        <ele>178.94</ele>
        <time>2018-12-27T10:06:17Z</time>
      </trkpt>
      <trkpt lat="43.25299" lon="5.99088">
        <ele>179.42</ele>
        <time>2018-12-27T10:06:33Z</time>
      </trkpt>
      <trkpt lat="43.25311" lon="5.99052">
        <ele>180.38</ele>
        <time>2018-12-27T10:06:52Z</time>
      </trkpt>
      <trkpt lat="43.25311" lon="5.99049">
        <ele>178.94</ele>
        <time>2018-12-27T10:06:54Z</time>
      </trkpt>
      <trkpt lat="43.2531" lon="5.9904">
        <ele>180.38</ele>
        <time>2018-12-27T10:07:01Z</time>
      </trkpt>
      <trkpt lat="43.25312" lon="5.99013">
        <ele>179.9</ele>
        <time>2018-12-27T10:07:20Z</time>
      </trkpt>
      <trkpt lat="43.25313" lon="5.98993">
        <ele>180.38</ele>
        <time>2018-12-27T10:07:30Z</time>
      </trkpt>
      <trkpt lat="43.25313" lon="5.98988">
        <ele>178.94</ele>
        <time>2018-12-27T10:07:33Z</time>
      </trkpt>
      <trkpt lat="43.25322" lon="5.98956">
        <ele>178.46</ele>
        <time>2018-12-27T10:07:53Z</time>
      </trkpt>
      <trkpt lat="43.25325" lon="5.98949">
        <ele>179.9</ele>
        <time>2018-12-27T10:07:57Z</time>
      </trkpt>
      <trkpt lat="43.25326" lon="5.98945">
        <ele>178.46</ele>
        <time>2018-12-27T10:07:59Z</time>
      </trkpt>
      <trkpt lat="43.25326" lon="5.98935">
        <ele>177.98</ele>
        <time>2018-12-27T10:08:07Z</time>
      </trkpt>
      <trkpt lat="43.25324" lon="5.98929">
        <ele>179.42</ele>
        <time>2018-12-27T10:08:10Z</time>
      </trkpt>
      <trkpt lat="43.25326" lon="5.9892">
        <ele>177.5</ele>
        <time>2018-12-27T10:08:15Z</time>
      </trkpt>
      <trkpt lat="43.25328" lon="5.98917">
        <ele>178.94</ele>
        <time>2018-12-27T10:08:17Z</time>
      </trkpt>
      <trkpt lat="43.25329" lon="5.98912">
        <ele>177.02</ele>
        <time>2018-12-27T10:08:21Z</time>
      </trkpt>
      <trkpt lat="43.2533" lon="5.98909">
        <ele>178.46</ele>
        <time>2018-12-27T10:08:23Z</time>
      </trkpt>
      <trkpt lat="43.25334" lon="5.9889">
        <ele>176.54</ele>
        <time>2018-12-27T10:08:42Z</time>
      </trkpt>
      <trkpt lat="43.25333" lon="5.98887">
        <ele>178.46</ele>
        <time>2018-12-27T10:08:44Z</time>
      </trkpt>
      <trkpt lat="43.25329" lon="5.98866">
        <ele>178.46</ele>
        <time>2018-12-27T10:08:59Z</time>
      </trkpt>
      <trkpt lat="43.25329" lon="5.9886">
        <ele>177.02</ele>
        <time>2018-12-27T10:09:02Z</time>
      </trkpt>
      <trkpt lat="43.2533" lon="5.98856">
        <ele>178.94</ele>
        <time>2018-12-27T10:09:04Z</time>
      </trkpt>
      <trkpt lat="43.2533" lon="5.98847">
        <ele>177.02</ele>
        <time>2018-12-27T10:09:08Z</time>
      </trkpt>
      <trkpt lat="43.25329" lon="5.98834">
        <ele>178.94</ele>
        <time>2018-12-27T10:09:16Z</time>
      </trkpt>
      <trkpt lat="43.25329" lon="5.9883">
        <ele>177.5</ele>
        <time>2018-12-27T10:09:18Z</time>
      </trkpt>
      <trkpt lat="43.25329" lon="5.98812">
        <ele>177.98</ele>
        <time>2018-12-27T10:09:27Z</time>
      </trkpt>
      <trkpt lat="43.25329" lon="5.98808">
        <ele>178.46</ele>
        <time>2018-12-27T10:09:29Z</time>
      </trkpt>
      <trkpt lat="43.25327" lon="5.98798">
        <ele>178.46</ele>
        <time>2018-12-27T10:09:35Z</time>
      </trkpt>
      <trkpt lat="43.25328" lon="5.98788">
        <ele>178.46</ele>
        <time>2018-12-27T10:09:43Z</time>
      </trkpt>
      <trkpt lat="43.2534" lon="5.98773">
        <ele>179.9</ele>
        <time>2018-12-27T10:09:57Z</time>
      </trkpt>
      <trkpt lat="43.25341" lon="5.9877">
        <ele>180.38</ele>
        <time>2018-12-27T10:10:00Z</time>
      </trkpt>
      <trkpt lat="43.25342" lon="5.98768">
        <ele>180.38</ele>
        <time>2018-12-27T10:10:01Z</time>
      </trkpt>
      <trkpt lat="43.25343" lon="5.98766">
        <ele>180.38</ele>
        <time>2018-12-27T10:10:02Z</time>
      </trkpt>
      <trkpt lat="43.25346" lon="5.98756">
        <ele>180.87</ele>
        <time>2018-12-27T10:10:08Z</time>
      </trkpt>
      <trkpt lat="43.25346" lon="5.98754">
        <ele>180.87</ele>
        <time>2018-12-27T10:10:09Z</time>
      </trkpt>
      <trkpt lat="43.25346" lon="5.98752">
        <ele>180.87</ele>
        <time>2018-12-27T10:10:10Z</time>
      </trkpt>
      <trkpt lat="43.25346" lon="5.9875">
        <ele>181.83</ele>
        <time>2018-12-27T10:10:11Z</time>
      </trkpt>
      <trkpt lat="43.25347" lon="5.98748">
        <ele>181.83</ele>
        <time>2018-12-27T10:10:12Z</time>
      </trkpt>
      <trkpt lat="43.25347" lon="5.98747">
        <ele>181.83</ele>
        <time>2018-12-27T10:10:13Z</time>
      </trkpt>
      <trkpt lat="43.2535" lon="5.98723">
        <ele>181.83</ele>
        <time>2018-12-27T10:10:27Z</time>
      </trkpt>
      <trkpt lat="43.2535" lon="5.98705">
        <ele>182.79</ele>
        <time>2018-12-27T10:10:38Z</time>
      </trkpt>
      <trkpt lat="43.2535" lon="5.98693">
        <ele>182.79</ele>
        <time>2018-12-27T10:10:46Z</time>
      </trkpt>
      <trkpt lat="43.2535" lon="5.98692">
        <ele>182.79</ele>
        <time>2018-12-27T10:10:47Z</time>
      </trkpt>
      <trkpt lat="43.2535" lon="5.98689">
        <ele>182.79</ele>
        <time>2018-12-27T10:10:48Z</time>
      </trkpt>
      <trkpt lat="43.2535" lon="5.98687">
        <ele>182.79</ele>
        <time>2018-12-27T10:10:49Z</time>
      </trkpt>
      <trkpt lat="43.2535" lon="5.9867">
        <ele>182.79</ele>
        <time>2018-12-27T10:11:00Z</time>
      </trkpt>
      <trkpt lat="43.25355" lon="5.98652">
        <ele>182.79</ele>
        <time>2018-12-27T10:11:12Z</time>
      </trkpt>
      <trkpt lat="43.25358" lon="5.98645">
        <ele>182.79</ele>
        <time>2018-12-27T10:11:18Z</time>
      </trkpt>
      <trkpt lat="43.2536" lon="5.98643">
        <ele>182.79</ele>
        <time>2018-12-27T10:11:19Z</time>
      </trkpt>
      <trkpt lat="43.2536" lon="5.9864">
        <ele>182.79</ele>
        <time>2018-12-27T10:11:20Z</time>
      </trkpt>
      <trkpt lat="43.25365" lon="5.98627">
        <ele>182.79</ele>
        <time>2018-12-27T10:11:29Z</time>
      </trkpt>
      <trkpt lat="43.25365" lon="5.98623">
        <ele>182.79</ele>
        <time>2018-12-27T10:11:32Z</time>
      </trkpt>
      <trkpt lat="43.25365" lon="5.98621">
        <ele>182.79</ele>
        <time>2018-12-27T10:11:33Z</time>
      </trkpt>
      <trkpt lat="43.25365" lon="5.98619">
        <ele>182.79</ele>
        <time>2018-12-27T10:11:34Z</time>
      </trkpt>
      <trkpt lat="43.25363" lon="5.986">
        <ele>182.79</ele>
        <time>2018-12-27T10:11:47Z</time>
      </trkpt>
      <trkpt lat="43.25363" lon="5.98596">
        <ele>182.79</ele>
        <time>2018-12-27T10:11:49Z</time>
      </trkpt>
      <trkpt lat="43.25363" lon="5.98594">
        <ele>182.79</ele>
        <time>2018-12-27T10:11:50Z</time>
      </trkpt>
      <trkpt lat="43.25362" lon="5.98592">
        <ele>182.79</ele>
        <time>2018-12-27T10:11:51Z</time>
      </trkpt>
      <trkpt lat="43.25359" lon="5.98584">
        <ele>182.79</ele>
        <time>2018-12-27T10:11:57Z</time>
      </trkpt>
      <trkpt lat="43.25354" lon="5.9857">
        <ele>183.27</ele>
        <time>2018-12-27T10:12:09Z</time>
      </trkpt>
      <trkpt lat="43.25352" lon="5.98568">
        <ele>183.27</ele>
        <time>2018-12-27T10:12:12Z</time>
      </trkpt>
      <trkpt lat="43.25351" lon="5.98567">
        <ele>183.27</ele>
        <time>2018-12-27T10:12:13Z</time>
      </trkpt>
      <trkpt lat="43.25349" lon="5.98561">
        <ele>183.27</ele>
        <time>2018-12-27T10:12:18Z</time>
      </trkpt>
      <trkpt lat="43.25349" lon="5.98559">
        <ele>183.27</ele>
        <time>2018-12-27T10:12:19Z</time>
      </trkpt>
      <trkpt lat="43.25345" lon="5.98543">
        <ele>184.71</ele>
        <time>2018-12-27T10:12:27Z</time>
      </trkpt>
      <trkpt lat="43.25344" lon="5.9854">
        <ele>184.71</ele>
        <time>2018-12-27T10:12:30Z</time>
      </trkpt>
      <trkpt lat="43.25342" lon="5.98532">
        <ele>184.71</ele>
        <time>2018-12-27T10:12:37Z</time>
      </trkpt>
      <trkpt lat="43.2534" lon="5.98527">
        <ele>184.71</ele>
        <time>2018-12-27T10:12:41Z</time>
      </trkpt>
      <trkpt lat="43.25337" lon="5.98521">
        <ele>185.19</ele>
        <time>2018-12-27T10:12:46Z</time>
      </trkpt>
      <trkpt lat="43.25334" lon="5.98515">
        <ele>185.67</ele>
        <time>2018-12-27T10:12:50Z</time>
      </trkpt>
      <trkpt lat="43.25327" lon="5.98497">
        <ele>186.63</ele>
        <time>2018-12-27T10:13:05Z</time>
      </trkpt>
      <trkpt lat="43.25322" lon="5.98487">
        <ele>187.59</ele>
        <time>2018-12-27T10:13:15Z</time>
      </trkpt>
      <trkpt lat="43.25321" lon="5.98483">
        <ele>188.56</ele>
        <time>2018-12-27T10:13:17Z</time>
      </trkpt>
      <trkpt lat="43.25318" lon="5.98479">
        <ele>188.08</ele>
        <time>2018-12-27T10:13:21Z</time>
      </trkpt>
      <trkpt lat="43.25317" lon="5.98477">
        <ele>188.56</ele>
        <time>2018-12-27T10:13:22Z</time>
      </trkpt>
      <trkpt lat="43.25315" lon="5.98471">
        <ele>188.56</ele>
        <time>2018-12-27T10:13:27Z</time>
      </trkpt>
      <trkpt lat="43.25315" lon="5.98468">
        <ele>188.56</ele>
        <time>2018-12-27T10:13:28Z</time>
      </trkpt>
      <trkpt lat="43.25313" lon="5.98459">
        <ele>188.56</ele>
        <time>2018-12-27T10:13:34Z</time>
      </trkpt>
      <trkpt lat="43.25314" lon="5.98457">
        <ele>188.56</ele>
        <time>2018-12-27T10:13:35Z</time>
      </trkpt>
      <trkpt lat="43.25314" lon="5.98455">
        <ele>188.56</ele>
        <time>2018-12-27T10:13:36Z</time>
      </trkpt>
      <trkpt lat="43.25315" lon="5.98448">
        <ele>188.56</ele>
        <time>2018-12-27T10:13:41Z</time>
      </trkpt>
      <trkpt lat="43.25316" lon="5.98446">
        <ele>188.56</ele>
        <time>2018-12-27T10:13:42Z</time>
      </trkpt>
      <trkpt lat="43.25317" lon="5.98444">
        <ele>188.56</ele>
        <time>2018-12-27T10:13:43Z</time>
      </trkpt>
      <trkpt lat="43.2532" lon="5.98441">
        <ele>188.56</ele>
        <time>2018-12-27T10:13:47Z</time>
      </trkpt>
      <trkpt lat="43.25328" lon="5.98443">
        <ele>188.56</ele>
        <time>2018-12-27T10:13:58Z</time>
      </trkpt>
      <trkpt lat="43.25329" lon="5.98444">
        <ele>188.56</ele>
        <time>2018-12-27T10:13:59Z</time>
      </trkpt>
      <trkpt lat="43.25334" lon="5.98447">
        <ele>188.56</ele>
        <time>2018-12-27T10:14:03Z</time>
      </trkpt>
      <trkpt lat="43.25335" lon="5.98448">
        <ele>188.56</ele>
        <time>2018-12-27T10:14:04Z</time>
      </trkpt>
      <trkpt lat="43.25336" lon="5.98448">
        <ele>188.56</ele>
        <time>2018-12-27T10:14:05Z</time>
      </trkpt>
      <trkpt lat="43.25338" lon="5.98449">
        <ele>188.56</ele>
        <time>2018-12-27T10:14:08Z</time>
      </trkpt>
      <trkpt lat="43.25339" lon="5.9845">
        <ele>188.56</ele>
        <time>2018-12-27T10:14:09Z</time>
      </trkpt>
      <trkpt lat="43.2534" lon="5.98451">
        <ele>188.56</ele>
        <time>2018-12-27T10:14:10Z</time>
      </trkpt>
      <trkpt lat="43.25351" lon="5.98459">
        <ele>187.11</ele>
        <time>2018-12-27T10:14:20Z</time>
      </trkpt>
      <trkpt lat="43.25352" lon="5.9846">
        <ele>187.11</ele>
        <time>2018-12-27T10:14:22Z</time>
      </trkpt>
      <trkpt lat="43.25354" lon="5.98461">
        <ele>187.11</ele>
        <time>2018-12-27T10:14:23Z</time>
      </trkpt>
      <trkpt lat="43.25355" lon="5.98462">
        <ele>186.63</ele>
        <time>2018-12-27T10:14:24Z</time>
      </trkpt>
      <trkpt lat="43.25359" lon="5.98463">
        <ele>186.63</ele>
        <time>2018-12-27T10:14:28Z</time>
      </trkpt>
      <trkpt lat="43.25361" lon="5.98464">
        <ele>186.63</ele>
        <time>2018-12-27T10:14:29Z</time>
      </trkpt>
      <trkpt lat="43.25368" lon="5.98465">
        <ele>186.15</ele>
        <time>2018-12-27T10:14:35Z</time>
      </trkpt>
      <trkpt lat="43.25369" lon="5.98466">
        <ele>185.67</ele>
        <time>2018-12-27T10:14:36Z</time>
      </trkpt>
      <trkpt lat="43.25372" lon="5.98466">
        <ele>185.67</ele>
        <time>2018-12-27T10:14:37Z</time>
      </trkpt>
      <trkpt lat="43.25374" lon="5.98466">
        <ele>185.67</ele>
        <time>2018-12-27T10:14:38Z</time>
      </trkpt>
      <trkpt lat="43.25376" lon="5.98467">
        <ele>185.67</ele>
        <time>2018-12-27T10:14:42Z</time>
      </trkpt>
      <trkpt lat="43.25377" lon="5.98467">
        <ele>185.19</ele>
        <time>2018-12-27T10:14:43Z</time>
      </trkpt>
      <trkpt lat="43.25379" lon="5.98467">
        <ele>185.19</ele>
        <time>2018-12-27T10:14:44Z</time>
      </trkpt>
      <trkpt lat="43.25381" lon="5.98467">
        <ele>185.19</ele>
        <time>2018-12-27T10:14:45Z</time>
      </trkpt>
      <trkpt lat="43.2539" lon="5.98458">
        <ele>185.19</ele>
        <time>2018-12-27T10:14:55Z</time>
      </trkpt>
      <trkpt lat="43.25398" lon="5.98448">
        <ele>185.67</ele>
        <time>2018-12-27T10:15:06Z</time>
      </trkpt>
      <trkpt lat="43.25402" lon="5.98435">
        <ele>185.67</ele>
        <time>2018-12-27T10:15:17Z</time>
      </trkpt>
      <trkpt lat="43.25405" lon="5.98426">
        <ele>185.67</ele>
        <time>2018-12-27T10:15:23Z</time>
      </trkpt>
      <trkpt lat="43.25405" lon="5.98424">
        <ele>185.67</ele>
        <time>2018-12-27T10:15:24Z</time>
      </trkpt>
      <trkpt lat="43.25411" lon="5.98403">
        <ele>185.67</ele>
        <time>2018-12-27T10:15:38Z</time>
      </trkpt>
      <trkpt lat="43.25414" lon="5.98394">
        <ele>185.67</ele>
        <time>2018-12-27T10:15:44Z</time>
      </trkpt>
      <trkpt lat="43.25415" lon="5.98392">
        <ele>186.15</ele>
        <time>2018-12-27T10:15:45Z</time>
      </trkpt>
      <trkpt lat="43.2542" lon="5.98375">
        <ele>186.15</ele>
        <time>2018-12-27T10:15:57Z</time>
      </trkpt>
      <trkpt lat="43.25421" lon="5.98374">
        <ele>186.15</ele>
        <time>2018-12-27T10:15:58Z</time>
      </trkpt>
      <trkpt lat="43.25421" lon="5.98372">
        <ele>186.15</ele>
        <time>2018-12-27T10:15:59Z</time>
      </trkpt>
      <trkpt lat="43.25428" lon="5.98355">
        <ele>186.15</ele>
        <time>2018-12-27T10:16:11Z</time>
      </trkpt>
      <trkpt lat="43.25432" lon="5.98337">
        <ele>186.15</ele>
        <time>2018-12-27T10:16:23Z</time>
      </trkpt>
      <trkpt lat="43.25432" lon="5.98319">
        <ele>187.11</ele>
        <time>2018-12-27T10:16:37Z</time>
      </trkpt>
      <trkpt lat="43.25432" lon="5.98318">
        <ele>187.11</ele>
        <time>2018-12-27T10:16:38Z</time>
      </trkpt>
      <trkpt lat="43.25434" lon="5.9829">
        <ele>187.59</ele>
        <time>2018-12-27T10:16:56Z</time>
      </trkpt>
      <trkpt lat="43.25433" lon="5.98284">
        <ele>187.59</ele>
        <time>2018-12-27T10:17:00Z</time>
      </trkpt>
      <trkpt lat="43.25433" lon="5.98283">
        <ele>187.59</ele>
        <time>2018-12-27T10:17:01Z</time>
      </trkpt>
      <trkpt lat="43.25432" lon="5.98261">
        <ele>187.59</ele>
        <time>2018-12-27T10:17:14Z</time>
      </trkpt>
      <trkpt lat="43.25433" lon="5.9824">
        <ele>187.59</ele>
        <time>2018-12-27T10:17:30Z</time>
      </trkpt>
      <trkpt lat="43.25429" lon="5.98213">
        <ele>189.04</ele>
        <time>2018-12-27T10:17:49Z</time>
      </trkpt>
      <trkpt lat="43.25429" lon="5.98209">
        <ele>189.04</ele>
        <time>2018-12-27T10:17:52Z</time>
      </trkpt>
      <trkpt lat="43.25425" lon="5.98193">
        <ele>190</ele>
        <time>2018-12-27T10:18:02Z</time>
      </trkpt>
      <trkpt lat="43.25425" lon="5.98186">
        <ele>190</ele>
        <time>2018-12-27T10:18:07Z</time>
      </trkpt>
      <trkpt lat="43.25425" lon="5.98184">
        <ele>190</ele>
        <time>2018-12-27T10:18:08Z</time>
      </trkpt>
      <trkpt lat="43.25424" lon="5.98168">
        <ele>191.44</ele>
        <time>2018-12-27T10:18:16Z</time>
      </trkpt>
      <trkpt lat="43.25422" lon="5.9816">
        <ele>191.44</ele>
        <time>2018-12-27T10:18:22Z</time>
      </trkpt>
      <trkpt lat="43.25414" lon="5.9814">
        <ele>192.4</ele>
        <time>2018-12-27T10:18:36Z</time>
      </trkpt>
      <trkpt lat="43.25413" lon="5.9813">
        <ele>192.4</ele>
        <time>2018-12-27T10:18:49Z</time>
      </trkpt>
      <trkpt lat="43.25412" lon="5.98123">
        <ele>192.4</ele>
        <time>2018-12-27T10:18:56Z</time>
      </trkpt>
      <trkpt lat="43.25411" lon="5.98121">
        <ele>192.4</ele>
        <time>2018-12-27T10:18:57Z</time>
      </trkpt>
      <trkpt lat="43.2541" lon="5.98109">
        <ele>193.84</ele>
        <time>2018-12-27T10:19:11Z</time>
      </trkpt>
      <trkpt lat="43.2541" lon="5.98105">
        <ele>194.32</ele>
        <time>2018-12-27T10:19:15Z</time>
      </trkpt>
      <trkpt lat="43.25411" lon="5.98091">
        <ele>194.8</ele>
        <time>2018-12-27T10:19:27Z</time>
      </trkpt>
      <trkpt lat="43.25409" lon="5.98078">
        <ele>195.77</ele>
        <time>2018-12-27T10:19:41Z</time>
      </trkpt>
      <trkpt lat="43.25409" lon="5.98071">
        <ele>195.77</ele>
        <time>2018-12-27T10:19:55Z</time>
      </trkpt>
      <trkpt lat="43.25411" lon="5.98066">
        <ele>195.77</ele>
        <time>2018-12-27T10:20:12Z</time>
      </trkpt>
      <trkpt lat="43.25409" lon="5.98051">
        <ele>197.69</ele>
        <time>2018-12-27T10:20:25Z</time>
      </trkpt>
      <trkpt lat="43.25406" lon="5.98032">
        <ele>201.05</ele>
        <time>2018-12-27T10:20:39Z</time>
      </trkpt>
      <trkpt lat="43.25406" lon="5.98023">
        <ele>202.98</ele>
        <time>2018-12-27T10:20:51Z</time>
      </trkpt>
      <trkpt lat="43.25404" lon="5.98018">
        <ele>203.94</ele>
        <time>2018-12-27T10:20:58Z</time>
      </trkpt>
      <trkpt lat="43.25403" lon="5.98011">
        <ele>205.38</ele>
        <time>2018-12-27T10:21:03Z</time>
      </trkpt>
      <trkpt lat="43.25406" lon="5.98005">
        <ele>207.78</ele>
        <time>2018-12-27T10:21:08Z</time>
      </trkpt>
      <trkpt lat="43.25411" lon="5.98005">
        <ele>208.74</ele>
        <time>2018-12-27T10:21:23Z</time>
      </trkpt>
      <trkpt lat="43.25414" lon="5.98008">
        <ele>209.22</ele>
        <time>2018-12-27T10:21:28Z</time>
      </trkpt>
      <trkpt lat="43.25416" lon="5.98008">
        <ele>209.7</ele>
        <time>2018-12-27T10:21:29Z</time>
      </trkpt>
      <trkpt lat="43.25419" lon="5.98011">
        <ele>211.63</ele>
        <time>2018-12-27T10:21:39Z</time>
      </trkpt>
      <trkpt lat="43.25427" lon="5.98016">
        <ele>213.55</ele>
        <time>2018-12-27T10:21:49Z</time>
      </trkpt>
      <trkpt lat="43.25434" lon="5.98021">
        <ele>214.99</ele>
        <time>2018-12-27T10:21:58Z</time>
      </trkpt>
      <trkpt lat="43.25439" lon="5.98023">
        <ele>215.95</ele>
        <time>2018-12-27T10:22:12Z</time>
      </trkpt>
      <trkpt lat="43.25448" lon="5.98025">
        <ele>219.32</ele>
        <time>2018-12-27T10:22:25Z</time>
      </trkpt>
      <trkpt lat="43.25453" lon="5.98019">
        <ele>220.76</ele>
        <time>2018-12-27T10:22:39Z</time>
      </trkpt>
      <trkpt lat="43.25457" lon="5.98013">
        <ele>224.12</ele>
        <time>2018-12-27T10:22:52Z</time>
      </trkpt>
      <trkpt lat="43.25462" lon="5.98003">
        <ele>226.05</ele>
        <time>2018-12-27T10:23:05Z</time>
      </trkpt>
      <trkpt lat="43.25464" lon="5.97997">
        <ele>227.49</ele>
        <time>2018-12-27T10:23:11Z</time>
      </trkpt>
      <trkpt lat="43.25473" lon="5.97985">
        <ele>229.89</ele>
        <time>2018-12-27T10:23:26Z</time>
      </trkpt>
      <trkpt lat="43.25478" lon="5.9798">
        <ele>230.85</ele>
        <time>2018-12-27T10:23:40Z</time>
      </trkpt>
      <trkpt lat="43.2548" lon="5.97978">
        <ele>230.85</ele>
        <time>2018-12-27T10:23:43Z</time>
      </trkpt>
      <trkpt lat="43.2548" lon="5.97977">
        <ele>230.85</ele>
        <time>2018-12-27T10:23:44Z</time>
      </trkpt>
      <trkpt lat="43.25492" lon="5.97965">
        <ele>233.26</ele>
        <time>2018-12-27T10:23:58Z</time>
      </trkpt>
      <trkpt lat="43.25496" lon="5.97963">
        <ele>233.74</ele>
        <time>2018-12-27T10:24:05Z</time>
      </trkpt>
      <trkpt lat="43.25499" lon="5.9796">
        <ele>234.22</ele>
        <time>2018-12-27T10:24:10Z</time>
      </trkpt>
      <trkpt lat="43.25501" lon="5.97956">
        <ele>234.22</ele>
        <time>2018-12-27T10:24:14Z</time>
      </trkpt>
      <trkpt lat="43.25502" lon="5.97955">
        <ele>234.22</ele>
        <time>2018-12-27T10:24:15Z</time>
      </trkpt>
      <trkpt lat="43.25504" lon="5.9795">
        <ele>234.7</ele>
        <time>2018-12-27T10:24:19Z</time>
      </trkpt>
      <trkpt lat="43.25505" lon="5.97948">
        <ele>234.7</ele>
        <time>2018-12-27T10:24:20Z</time>
      </trkpt>
      <trkpt lat="43.25507" lon="5.97942">
        <ele>235.18</ele>
        <time>2018-12-27T10:24:24Z</time>
      </trkpt>
      <trkpt lat="43.25514" lon="5.97932">
        <ele>237.58</ele>
        <time>2018-12-27T10:24:37Z</time>
      </trkpt>
      <trkpt lat="43.25514" lon="5.97932">
        <ele>238.54</ele>
        <time>2018-12-27T10:24:50Z</time>
      </trkpt>
      <trkpt lat="43.25511" lon="5.97933">
        <ele>238.54</ele>
        <time>2018-12-27T10:24:59Z</time>
      </trkpt>
      <trkpt lat="43.25506" lon="5.97932">
        <ele>239.02</ele>
        <time>2018-12-27T10:25:12Z</time>
      </trkpt>
      <trkpt lat="43.25494" lon="5.97938">
        <ele>241.43</ele>
        <time>2018-12-27T10:25:28Z</time>
      </trkpt>
      <trkpt lat="43.25483" lon="5.97939">
        <ele>244.31</ele>
        <time>2018-12-27T10:25:42Z</time>
      </trkpt>
      <trkpt lat="43.2548" lon="5.9794">
        <ele>246.23</ele>
        <time>2018-12-27T10:25:45Z</time>
      </trkpt>
      <trkpt lat="43.2547" lon="5.97941">
        <ele>248.64</ele>
        <time>2018-12-27T10:25:57Z</time>
      </trkpt>
      <trkpt lat="43.25458" lon="5.9794">
        <ele>250.56</ele>
        <time>2018-12-27T10:26:11Z</time>
      </trkpt>
      <trkpt lat="43.25459" lon="5.97942">
        <ele>250.56</ele>
        <time>2018-12-27T10:26:26Z</time>
      </trkpt>
      <trkpt lat="43.25455" lon="5.97943">
        <ele>251.04</ele>
        <time>2018-12-27T10:26:45Z</time>
      </trkpt>
      <trkpt lat="43.25454" lon="5.97939">
        <ele>251.04</ele>
        <time>2018-12-27T10:27:07Z</time>
      </trkpt>
      <trkpt lat="43.25451" lon="5.97936">
        <ele>252.48</ele>
        <time>2018-12-27T10:27:12Z</time>
      </trkpt>
      <trkpt lat="43.25449" lon="5.97934">
        <ele>252.96</ele>
        <time>2018-12-27T10:27:15Z</time>
      </trkpt>
      <trkpt lat="43.25446" lon="5.97921">
        <ele>255.37</ele>
        <time>2018-12-27T10:27:26Z</time>
      </trkpt>
      <trkpt lat="43.25446" lon="5.97919">
        <ele>255.37</ele>
        <time>2018-12-27T10:27:27Z</time>
      </trkpt>
      <trkpt lat="43.25447" lon="5.97913">
        <ele>256.81</ele>
        <time>2018-12-27T10:27:32Z</time>
      </trkpt>
      <trkpt lat="43.25448" lon="5.97908">
        <ele>258.25</ele>
        <time>2018-12-27T10:27:43Z</time>
      </trkpt>
      <trkpt lat="43.25449" lon="5.97905">
        <ele>258.25</ele>
        <time>2018-12-27T10:27:46Z</time>
      </trkpt>
      <trkpt lat="43.25449" lon="5.97903">
        <ele>258.73</ele>
        <time>2018-12-27T10:27:47Z</time>
      </trkpt>
      <trkpt lat="43.25454" lon="5.97889">
        <ele>260.65</ele>
        <time>2018-12-27T10:28:01Z</time>
      </trkpt>
      <trkpt lat="43.25455" lon="5.97886">
        <ele>261.14</ele>
        <time>2018-12-27T10:28:04Z</time>
      </trkpt>
      <trkpt lat="43.25455" lon="5.97881">
        <ele>261.62</ele>
        <time>2018-12-27T10:28:16Z</time>
      </trkpt>
      <trkpt lat="43.25455" lon="5.97869">
        <ele>263.54</ele>
        <time>2018-12-27T10:28:33Z</time>
      </trkpt>
      <trkpt lat="43.25453" lon="5.97856">
        <ele>265.94</ele>
        <time>2018-12-27T10:28:50Z</time>
      </trkpt>
      <trkpt lat="43.25448" lon="5.97842">
        <ele>268.83</ele>
        <time>2018-12-27T10:29:03Z</time>
      </trkpt>
      <trkpt lat="43.25447" lon="5.97838">
        <ele>269.79</ele>
        <time>2018-12-27T10:29:16Z</time>
      </trkpt>
      <trkpt lat="43.25449" lon="5.97829">
        <ele>270.27</ele>
        <time>2018-12-27T10:29:30Z</time>
      </trkpt>
      <trkpt lat="43.25451" lon="5.97819">
        <ele>272.67</ele>
        <time>2018-12-27T10:29:47Z</time>
      </trkpt>
      <trkpt lat="43.25455" lon="5.97808">
        <ele>275.56</ele>
        <time>2018-12-27T10:29:59Z</time>
      </trkpt>
      <trkpt lat="43.25456" lon="5.978">
        <ele>277</ele>
        <time>2018-12-27T10:30:10Z</time>
      </trkpt>
      <trkpt lat="43.25457" lon="5.97797">
        <ele>277.48</ele>
        <time>2018-12-27T10:30:25Z</time>
      </trkpt>
      <trkpt lat="43.2546" lon="5.97784">
        <ele>279.4</ele>
        <time>2018-12-27T10:30:40Z</time>
      </trkpt>
      <trkpt lat="43.25468" lon="5.97775">
        <ele>281.32</ele>
        <time>2018-12-27T10:30:54Z</time>
      </trkpt>
      <trkpt lat="43.25479" lon="5.97767">
        <ele>283.73</ele>
        <time>2018-12-27T10:31:09Z</time>
      </trkpt>
      <trkpt lat="43.25482" lon="5.97763">
        <ele>284.69</ele>
        <time>2018-12-27T10:31:22Z</time>
      </trkpt>
      <trkpt lat="43.25489" lon="5.97756">
        <ele>287.57</ele>
        <time>2018-12-27T10:31:35Z</time>
      </trkpt>
      <trkpt lat="43.25492" lon="5.97752">
        <ele>288.53</ele>
        <time>2018-12-27T10:31:54Z</time>
      </trkpt>
      <trkpt lat="43.25499" lon="5.97744">
        <ele>291.42</ele>
        <time>2018-12-27T10:32:08Z</time>
      </trkpt>
      <trkpt lat="43.25502" lon="5.97739">
        <ele>292.86</ele>
        <time>2018-12-27T10:32:20Z</time>
      </trkpt>
      <trkpt lat="43.25502" lon="5.97737">
        <ele>292.86</ele>
        <time>2018-12-27T10:32:21Z</time>
      </trkpt>
      <trkpt lat="43.25503" lon="5.97735">
        <ele>293.34</ele>
        <time>2018-12-27T10:32:23Z</time>
      </trkpt>
      <trkpt lat="43.25506" lon="5.9773">
        <ele>294.78</ele>
        <time>2018-12-27T10:32:35Z</time>
      </trkpt>
      <trkpt lat="43.25506" lon="5.97729">
        <ele>295.26</ele>
        <time>2018-12-27T10:32:41Z</time>
      </trkpt>
      <trkpt lat="43.25509" lon="5.97725">
        <ele>295.74</ele>
        <time>2018-12-27T10:32:51Z</time>
      </trkpt>
      <trkpt lat="43.25513" lon="5.97715">
        <ele>298.63</ele>
        <time>2018-12-27T10:33:00Z</time>
      </trkpt>
      <trkpt lat="43.25514" lon="5.97713">
        <ele>299.11</ele>
        <time>2018-12-27T10:33:01Z</time>
      </trkpt>
      <trkpt lat="43.25514" lon="5.97707">
        <ele>301.51</ele>
        <time>2018-12-27T10:33:12Z</time>
      </trkpt>
      <trkpt lat="43.25514" lon="5.97706">
        <ele>301.51</ele>
        <time>2018-12-27T10:33:25Z</time>
      </trkpt>
      <trkpt lat="43.25513" lon="5.97705">
        <ele>301.51</ele>
        <time>2018-12-27T10:33:40Z</time>
      </trkpt>
      <trkpt lat="43.25513" lon="5.97705">
        <ele>296.7</ele>
        <time>2018-12-27T10:33:54Z</time>
      </trkpt>
      <trkpt lat="43.25512" lon="5.97705">
        <ele>300.07</ele>
        <time>2018-12-27T10:33:55Z</time>
      </trkpt>
      <trkpt lat="43.25512" lon="5.97703">
        <ele>303.43</ele>
        <time>2018-12-27T10:34:01Z</time>
      </trkpt>
      <trkpt lat="43.25513" lon="5.97704">
        <ele>303.43</ele>
        <time>2018-12-27T10:34:02Z</time>
      </trkpt>
      <trkpt lat="43.25514" lon="5.97704">
        <ele>301.03</ele>
        <time>2018-12-27T10:34:04Z</time>
      </trkpt>
      <trkpt lat="43.25513" lon="5.97701">
        <ele>302.47</ele>
        <time>2018-12-27T10:34:35Z</time>
      </trkpt>
      <trkpt lat="43.25513" lon="5.97702">
        <ele>301.03</ele>
        <time>2018-12-27T10:34:37Z</time>
      </trkpt>
      <trkpt lat="43.25514" lon="5.97703">
        <ele>299.59</ele>
        <time>2018-12-27T10:34:44Z</time>
      </trkpt>
      <trkpt lat="43.25515" lon="5.97703">
        <ele>302.95</ele>
        <time>2018-12-27T10:34:46Z</time>
      </trkpt>
      <trkpt lat="43.25515" lon="5.97703">
        <ele>301.51</ele>
        <time>2018-12-27T10:34:47Z</time>
      </trkpt>
      <trkpt lat="43.25514" lon="5.97703">
        <ele>301.51</ele>
        <time>2018-12-27T10:35:04Z</time>
      </trkpt>
      <trkpt lat="43.25514" lon="5.97702">
        <ele>302.47</ele>
        <time>2018-12-27T10:35:20Z</time>
      </trkpt>
      <trkpt lat="43.25511" lon="5.97699">
        <ele>303.91</ele>
        <time>2018-12-27T10:35:35Z</time>
      </trkpt>
      <trkpt lat="43.2551" lon="5.97697">
        <ele>304.39</ele>
        <time>2018-12-27T10:35:48Z</time>
      </trkpt>
      <trkpt lat="43.255" lon="5.97697">
        <ele>306.8</ele>
        <time>2018-12-27T10:36:04Z</time>
      </trkpt>
      <trkpt lat="43.2549" lon="5.97696">
        <ele>309.68</ele>
        <time>2018-12-27T10:36:19Z</time>
      </trkpt>
      <trkpt lat="43.25484" lon="5.97695">
        <ele>312.09</ele>
        <time>2018-12-27T10:36:34Z</time>
      </trkpt>
      <trkpt lat="43.25478" lon="5.9769">
        <ele>314.01</ele>
        <time>2018-12-27T10:36:51Z</time>
      </trkpt>
      <trkpt lat="43.25469" lon="5.97684">
        <ele>314.97</ele>
        <time>2018-12-27T10:37:04Z</time>
      </trkpt>
      <trkpt lat="43.2546" lon="5.97679">
        <ele>317.37</ele>
        <time>2018-12-27T10:37:19Z</time>
      </trkpt>
      <trkpt lat="43.2546" lon="5.9768">
        <ele>317.85</ele>
        <time>2018-12-27T10:37:33Z</time>
      </trkpt>
      <trkpt lat="43.25452" lon="5.97672">
        <ele>318.81</ele>
        <time>2018-12-27T10:37:48Z</time>
      </trkpt>
      <trkpt lat="43.25445" lon="5.97671">
        <ele>321.22</ele>
        <time>2018-12-27T10:38:03Z</time>
      </trkpt>
      <trkpt lat="43.25443" lon="5.97663">
        <ele>322.66</ele>
        <time>2018-12-27T10:38:16Z</time>
      </trkpt>
      <trkpt lat="43.25443" lon="5.97659">
        <ele>324.58</ele>
        <time>2018-12-27T10:38:30Z</time>
      </trkpt>
      <trkpt lat="43.25444" lon="5.97661">
        <ele>323.14</ele>
        <time>2018-12-27T10:38:33Z</time>
      </trkpt>
      <trkpt lat="43.2544" lon="5.97664">
        <ele>323.62</ele>
        <time>2018-12-27T10:38:44Z</time>
      </trkpt>
      <trkpt lat="43.25431" lon="5.97663">
        <ele>326.99</ele>
        <time>2018-12-27T10:38:57Z</time>
      </trkpt>
      <trkpt lat="43.25423" lon="5.97666">
        <ele>327.95</ele>
        <time>2018-12-27T10:39:11Z</time>
      </trkpt>
      <trkpt lat="43.25421" lon="5.97666">
        <ele>328.43</ele>
        <time>2018-12-27T10:39:14Z</time>
      </trkpt>
      <trkpt lat="43.25413" lon="5.97666">
        <ele>329.87</ele>
        <time>2018-12-27T10:39:27Z</time>
      </trkpt>
      <trkpt lat="43.25402" lon="5.97671">
        <ele>332.27</ele>
        <time>2018-12-27T10:39:40Z</time>
      </trkpt>
      <trkpt lat="43.25399" lon="5.97672">
        <ele>332.75</ele>
        <time>2018-12-27T10:39:44Z</time>
      </trkpt>
      <trkpt lat="43.25389" lon="5.97677">
        <ele>335.64</ele>
        <time>2018-12-27T10:39:58Z</time>
      </trkpt>
      <trkpt lat="43.25386" lon="5.97679">
        <ele>335.64</ele>
        <time>2018-12-27T10:40:11Z</time>
      </trkpt>
      <trkpt lat="43.25381" lon="5.9768">
        <ele>335.64</ele>
        <time>2018-12-27T10:40:28Z</time>
      </trkpt>
      <trkpt lat="43.25373" lon="5.9768">
        <ele>336.6</ele>
        <time>2018-12-27T10:40:41Z</time>
      </trkpt>
      <trkpt lat="43.25373" lon="5.9768">
        <ele>337.08</ele>
        <time>2018-12-27T10:40:55Z</time>
      </trkpt>
      <trkpt lat="43.25371" lon="5.97679">
        <ele>337.08</ele>
        <time>2018-12-27T10:41:17Z</time>
      </trkpt>
      <trkpt lat="43.25363" lon="5.97677">
        <ele>338.52</ele>
        <time>2018-12-27T10:41:30Z</time>
      </trkpt>
      <trkpt lat="43.25349" lon="5.97676">
        <ele>339.96</ele>
        <time>2018-12-27T10:41:49Z</time>
      </trkpt>
      <trkpt lat="43.25339" lon="5.97671">
        <ele>341.41</ele>
        <time>2018-12-27T10:42:05Z</time>
      </trkpt>
      <trkpt lat="43.25336" lon="5.97664">
        <ele>341.89</ele>
        <time>2018-12-27T10:42:19Z</time>
      </trkpt>
      <trkpt lat="43.25328" lon="5.97661">
        <ele>342.37</ele>
        <time>2018-12-27T10:42:34Z</time>
      </trkpt>
      <trkpt lat="43.25318" lon="5.97663">
        <ele>340.44</ele>
        <time>2018-12-27T10:42:47Z</time>
      </trkpt>
      <trkpt lat="43.25305" lon="5.97666">
        <ele>339</ele>
        <time>2018-12-27T10:43:01Z</time>
      </trkpt>
      <trkpt lat="43.25304" lon="5.97665">
        <ele>339</ele>
        <time>2018-12-27T10:43:13Z</time>
      </trkpt>
      <trkpt lat="43.25298" lon="5.97667">
        <ele>338.52</ele>
        <time>2018-12-27T10:43:29Z</time>
      </trkpt>
      <trkpt lat="43.25295" lon="5.97668">
        <ele>338.04</ele>
        <time>2018-12-27T10:43:41Z</time>
      </trkpt>
      <trkpt lat="43.25293" lon="5.97667">
        <ele>339</ele>
        <time>2018-12-27T10:43:59Z</time>
      </trkpt>
      <trkpt lat="43.25282" lon="5.97669">
        <ele>339</ele>
        <time>2018-12-27T10:44:12Z</time>
      </trkpt>
      <trkpt lat="43.2527" lon="5.97669">
        <ele>339.48</ele>
        <time>2018-12-27T10:44:26Z</time>
      </trkpt>
      <trkpt lat="43.25266" lon="5.97668">
        <ele>337.56</ele>
        <time>2018-12-27T10:44:31Z</time>
      </trkpt>
      <trkpt lat="43.25264" lon="5.97668">
        <ele>338.52</ele>
        <time>2018-12-27T10:44:33Z</time>
      </trkpt>
      <trkpt lat="43.25263" lon="5.97669">
        <ele>337.08</ele>
        <time>2018-12-27T10:44:35Z</time>
      </trkpt>
      <trkpt lat="43.25252" lon="5.97667">
        <ele>337.08</ele>
        <time>2018-12-27T10:44:50Z</time>
      </trkpt>
      <trkpt lat="43.25241" lon="5.97668">
        <ele>333.23</ele>
        <time>2018-12-27T10:45:03Z</time>
      </trkpt>
      <trkpt lat="43.25234" lon="5.97667">
        <ele>330.35</ele>
        <time>2018-12-27T10:45:15Z</time>
      </trkpt>
      <trkpt lat="43.25234" lon="5.97663">
        <ele>329.87</ele>
        <time>2018-12-27T10:45:28Z</time>
      </trkpt>
      <trkpt lat="43.25231" lon="5.97666">
        <ele>329.87</ele>
        <time>2018-12-27T10:45:49Z</time>
      </trkpt>
      <trkpt lat="43.25223" lon="5.97666">
        <ele>327.95</ele>
        <time>2018-12-27T10:46:03Z</time>
      </trkpt>
      <trkpt lat="43.25217" lon="5.97663">
        <ele>326.5</ele>
        <time>2018-12-27T10:46:17Z</time>
      </trkpt>
      <trkpt lat="43.25211" lon="5.97666">
        <ele>324.1</ele>
        <time>2018-12-27T10:46:34Z</time>
      </trkpt>
      <trkpt lat="43.25207" lon="5.97666">
        <ele>322.66</ele>
        <time>2018-12-27T10:46:39Z</time>
      </trkpt>
      <trkpt lat="43.25206" lon="5.97666">
        <ele>326.02</ele>
        <time>2018-12-27T10:46:40Z</time>
      </trkpt>
      <trkpt lat="43.25206" lon="5.97666">
        <ele>322.66</ele>
        <time>2018-12-27T10:46:41Z</time>
      </trkpt>
      <trkpt lat="43.25205" lon="5.97666">
        <ele>326.5</ele>
        <time>2018-12-27T10:46:42Z</time>
      </trkpt>
      <trkpt lat="43.25201" lon="5.97671">
        <ele>324.58</ele>
        <time>2018-12-27T10:46:51Z</time>
      </trkpt>
      <trkpt lat="43.25201" lon="5.97671">
        <ele>326.02</ele>
        <time>2018-12-27T10:47:00Z</time>
      </trkpt>
      <trkpt lat="43.25201" lon="5.9767">
        <ele>324.58</ele>
        <time>2018-12-27T10:47:09Z</time>
      </trkpt>
      <trkpt lat="43.252" lon="5.97671">
        <ele>326.02</ele>
        <time>2018-12-27T10:47:15Z</time>
      </trkpt>
      <trkpt lat="43.25192" lon="5.97667">
        <ele>325.54</ele>
        <time>2018-12-27T10:47:36Z</time>
      </trkpt>
      <trkpt lat="43.25178" lon="5.97669">
        <ele>326.02</ele>
        <time>2018-12-27T10:47:55Z</time>
      </trkpt>
      <trkpt lat="43.25177" lon="5.97668">
        <ele>324.58</ele>
        <time>2018-12-27T10:48:00Z</time>
      </trkpt>
      <trkpt lat="43.2518" lon="5.97661">
        <ele>326.02</ele>
        <time>2018-12-27T10:48:28Z</time>
      </trkpt>
      <trkpt lat="43.25169" lon="5.9766">
        <ele>325.54</ele>
        <time>2018-12-27T10:48:51Z</time>
      </trkpt>
      <trkpt lat="43.25162" lon="5.97666">
        <ele>323.14</ele>
        <time>2018-12-27T10:49:18Z</time>
      </trkpt>
      <trkpt lat="43.25157" lon="5.97664">
        <ele>322.66</ele>
        <time>2018-12-27T10:49:34Z</time>
      </trkpt>
      <trkpt lat="43.25147" lon="5.97664">
        <ele>324.58</ele>
        <time>2018-12-27T10:49:49Z</time>
      </trkpt>
      <trkpt lat="43.2514" lon="5.97664">
        <ele>327.47</ele>
        <time>2018-12-27T10:50:00Z</time>
      </trkpt>
      <trkpt lat="43.25135" lon="5.97669">
        <ele>328.43</ele>
        <time>2018-12-27T10:50:17Z</time>
      </trkpt>
      <trkpt lat="43.25127" lon="5.97672">
        <ele>329.87</ele>
        <time>2018-12-27T10:50:31Z</time>
      </trkpt>
      <trkpt lat="43.25119" lon="5.97667">
        <ele>329.87</ele>
        <time>2018-12-27T10:50:47Z</time>
      </trkpt>
      <trkpt lat="43.25113" lon="5.97664">
        <ele>328.43</ele>
        <time>2018-12-27T10:51:02Z</time>
      </trkpt>
      <trkpt lat="43.25107" lon="5.97659">
        <ele>324.58</ele>
        <time>2018-12-27T10:51:20Z</time>
      </trkpt>
      <trkpt lat="43.25106" lon="5.97659">
        <ele>328.91</ele>
        <time>2018-12-27T10:51:21Z</time>
      </trkpt>
      <trkpt lat="43.25098" lon="5.97655">
        <ele>327.95</ele>
        <time>2018-12-27T10:51:44Z</time>
      </trkpt>
      <trkpt lat="43.25089" lon="5.97656">
        <ele>327.95</ele>
        <time>2018-12-27T10:52:06Z</time>
      </trkpt>
      <trkpt lat="43.25074" lon="5.97658">
        <ele>329.87</ele>
        <time>2018-12-27T10:52:26Z</time>
      </trkpt>
      <trkpt lat="43.25069" lon="5.97661">
        <ele>328.43</ele>
        <time>2018-12-27T10:52:32Z</time>
      </trkpt>
      <trkpt lat="43.25068" lon="5.97661">
        <ele>327.95</ele>
        <time>2018-12-27T10:52:34Z</time>
      </trkpt>
      <trkpt lat="43.25064" lon="5.97666">
        <ele>326.99</ele>
        <time>2018-12-27T10:52:39Z</time>
      </trkpt>
      <trkpt lat="43.2506" lon="5.97669">
        <ele>322.66</ele>
        <time>2018-12-27T10:52:54Z</time>
      </trkpt>
      <trkpt lat="43.2506" lon="5.97668">
        <ele>326.02</ele>
        <time>2018-12-27T10:52:55Z</time>
      </trkpt>
      <trkpt lat="43.2506" lon="5.97667">
        <ele>326.02</ele>
        <time>2018-12-27T10:52:56Z</time>
      </trkpt>
      <trkpt lat="43.25057" lon="5.97661">
        <ele>325.06</ele>
        <time>2018-12-27T10:53:02Z</time>
      </trkpt>
      <trkpt lat="43.25056" lon="5.97655">
        <ele>325.54</ele>
        <time>2018-12-27T10:53:20Z</time>
      </trkpt>
      <trkpt lat="43.25059" lon="5.97656">
        <ele>326.02</ele>
        <time>2018-12-27T10:53:28Z</time>
      </trkpt>
      <trkpt lat="43.25057" lon="5.97666">
        <ele>327.95</ele>
        <time>2018-12-27T10:53:47Z</time>
      </trkpt>
      <trkpt lat="43.25044" lon="5.97682">
        <ele>329.39</ele>
        <time>2018-12-27T10:54:02Z</time>
      </trkpt>
      <trkpt lat="43.25042" lon="5.97688">
        <ele>330.35</ele>
        <time>2018-12-27T10:54:08Z</time>
      </trkpt>
      <trkpt lat="43.25034" lon="5.97693">
        <ele>328.91</ele>
        <time>2018-12-27T10:54:16Z</time>
      </trkpt>
      <trkpt lat="43.25024" lon="5.97691">
        <ele>328.43</ele>
        <time>2018-12-27T10:54:30Z</time>
      </trkpt>
      <trkpt lat="43.25017" lon="5.97689">
        <ele>330.35</ele>
        <time>2018-12-27T10:54:40Z</time>
      </trkpt>
      <trkpt lat="43.25012" lon="5.97689">
        <ele>328.91</ele>
        <time>2018-12-27T10:54:46Z</time>
      </trkpt>
      <trkpt lat="43.25001" lon="5.97684">
        <ele>327.95</ele>
        <time>2018-12-27T10:54:59Z</time>
      </trkpt>
      <trkpt lat="43.24994" lon="5.97679">
        <ele>327.47</ele>
        <time>2018-12-27T10:55:12Z</time>
      </trkpt>
      <trkpt lat="43.24985" lon="5.97679">
        <ele>325.54</ele>
        <time>2018-12-27T10:55:25Z</time>
      </trkpt>
      <trkpt lat="43.24974" lon="5.97675">
        <ele>323.14</ele>
        <time>2018-12-27T10:55:39Z</time>
      </trkpt>
      <trkpt lat="43.24964" lon="5.97673">
        <ele>321.7</ele>
        <time>2018-12-27T10:55:55Z</time>
      </trkpt>
      <trkpt lat="43.24956" lon="5.97667">
        <ele>320.74</ele>
        <time>2018-12-27T10:56:10Z</time>
      </trkpt>
      <trkpt lat="43.24951" lon="5.97665">
        <ele>320.74</ele>
        <time>2018-12-27T10:56:18Z</time>
      </trkpt>
      <trkpt lat="43.24947" lon="5.97677">
        <ele>319.3</ele>
        <time>2018-12-27T10:56:34Z</time>
      </trkpt>
      <trkpt lat="43.24947" lon="5.97691">
        <ele>318.33</ele>
        <time>2018-12-27T10:56:49Z</time>
      </trkpt>
      <trkpt lat="43.24947" lon="5.9771">
        <ele>319.78</ele>
        <time>2018-12-27T10:57:05Z</time>
      </trkpt>
      <trkpt lat="43.24946" lon="5.9772">
        <ele>320.74</ele>
        <time>2018-12-27T10:57:16Z</time>
      </trkpt>
      <trkpt lat="43.24947" lon="5.9774">
        <ele>322.18</ele>
        <time>2018-12-27T10:57:31Z</time>
      </trkpt>
      <trkpt lat="43.24944" lon="5.97758">
        <ele>324.58</ele>
        <time>2018-12-27T10:57:47Z</time>
      </trkpt>
      <trkpt lat="43.24944" lon="5.97769">
        <ele>324.58</ele>
        <time>2018-12-27T10:58:00Z</time>
      </trkpt>
      <trkpt lat="43.24945" lon="5.97788">
        <ele>326.99</ele>
        <time>2018-12-27T10:58:17Z</time>
      </trkpt>
      <trkpt lat="43.24945" lon="5.978">
        <ele>328.43</ele>
        <time>2018-12-27T10:58:30Z</time>
      </trkpt>
      <trkpt lat="43.24943" lon="5.97812">
        <ele>330.35</ele>
        <time>2018-12-27T10:58:39Z</time>
      </trkpt>
      <trkpt lat="43.24942" lon="5.9782">
        <ele>330.35</ele>
        <time>2018-12-27T10:59:04Z</time>
      </trkpt>
      <trkpt lat="43.24942" lon="5.97831">
        <ele>333.23</ele>
        <time>2018-12-27T10:59:14Z</time>
      </trkpt>
      <trkpt lat="43.24941" lon="5.97844">
        <ele>334.68</ele>
        <time>2018-12-27T10:59:28Z</time>
      </trkpt>
      <trkpt lat="43.24938" lon="5.97857">
        <ele>337.08</ele>
        <time>2018-12-27T10:59:48Z</time>
      </trkpt>
      <trkpt lat="43.24937" lon="5.97853">
        <ele>334.68</ele>
        <time>2018-12-27T11:00:10Z</time>
      </trkpt>
      <trkpt lat="43.24938" lon="5.97853">
        <ele>337.08</ele>
        <time>2018-12-27T11:00:28Z</time>
      </trkpt>
      <trkpt lat="43.24939" lon="5.97858">
        <ele>337.56</ele>
        <time>2018-12-27T11:00:46Z</time>
      </trkpt>
      <trkpt lat="43.24939" lon="5.97859">
        <ele>336.6</ele>
        <time>2018-12-27T11:00:54Z</time>
      </trkpt>
      <trkpt lat="43.24945" lon="5.97857">
        <ele>336.12</ele>
        <time>2018-12-27T11:01:17Z</time>
      </trkpt>
      <trkpt lat="43.24942" lon="5.97858">
        <ele>334.68</ele>
        <time>2018-12-27T11:01:40Z</time>
      </trkpt>
      <trkpt lat="43.24941" lon="5.97859">
        <ele>338.52</ele>
        <time>2018-12-27T11:01:41Z</time>
      </trkpt>
      <trkpt lat="43.24939" lon="5.97867">
        <ele>337.56</ele>
        <time>2018-12-27T11:02:00Z</time>
      </trkpt>
      <trkpt lat="43.24945" lon="5.9788">
        <ele>339</ele>
        <time>2018-12-27T11:02:19Z</time>
      </trkpt>
      <trkpt lat="43.24951" lon="5.97887">
        <ele>339.48</ele>
        <time>2018-12-27T11:02:30Z</time>
      </trkpt>
      <trkpt lat="43.24959" lon="5.97893">
        <ele>339.96</ele>
        <time>2018-12-27T11:02:44Z</time>
      </trkpt>
      <trkpt lat="43.24964" lon="5.97901">
        <ele>339.96</ele>
        <time>2018-12-27T11:03:02Z</time>
      </trkpt>
      <trkpt lat="43.24964" lon="5.97901">
        <ele>334.2</ele>
        <time>2018-12-27T11:03:15Z</time>
      </trkpt>
      <trkpt lat="43.24964" lon="5.97901">
        <ele>343.81</ele>
        <time>2018-12-27T11:03:16Z</time>
      </trkpt>
      <trkpt lat="43.24963" lon="5.97901">
        <ele>341.41</ele>
        <time>2018-12-27T11:03:17Z</time>
      </trkpt>
      <trkpt lat="43.24964" lon="5.979">
        <ele>339</ele>
        <time>2018-12-27T11:03:19Z</time>
      </trkpt>
      <trkpt lat="43.24965" lon="5.97901">
        <ele>340.44</ele>
        <time>2018-12-27T11:03:51Z</time>
      </trkpt>
      <trkpt lat="43.24957" lon="5.97903">
        <ele>341.89</ele>
        <time>2018-12-27T11:03:58Z</time>
      </trkpt>
      <trkpt lat="43.24955" lon="5.97907">
        <ele>342.37</ele>
        <time>2018-12-27T11:04:07Z</time>
      </trkpt>
      <trkpt lat="43.24955" lon="5.97914">
        <ele>343.33</ele>
        <time>2018-12-27T11:04:25Z</time>
      </trkpt>
      <trkpt lat="43.24956" lon="5.97915">
        <ele>343.33</ele>
        <time>2018-12-27T11:04:47Z</time>
      </trkpt>
      <trkpt lat="43.24954" lon="5.97917">
        <ele>343.33</ele>
        <time>2018-12-27T11:05:21Z</time>
      </trkpt>
      <trkpt lat="43.24954" lon="5.9791">
        <ele>341.89</ele>
        <time>2018-12-27T11:05:45Z</time>
      </trkpt>
      <trkpt lat="43.24956" lon="5.97903">
        <ele>341.41</ele>
        <time>2018-12-27T11:06:02Z</time>
      </trkpt>
      <trkpt lat="43.24958" lon="5.9791">
        <ele>342.37</ele>
        <time>2018-12-27T11:06:18Z</time>
      </trkpt>
      <trkpt lat="43.24957" lon="5.97913">
        <ele>342.37</ele>
        <time>2018-12-27T11:06:38Z</time>
      </trkpt>
      <trkpt lat="43.24957" lon="5.97913">
        <ele>342.85</ele>
        <time>2018-12-27T11:06:47Z</time>
      </trkpt>
      <trkpt lat="43.24958" lon="5.97915">
        <ele>341.41</ele>
        <time>2018-12-27T11:07:00Z</time>
      </trkpt>
      <trkpt lat="43.24958" lon="5.97915">
        <ele>343.33</ele>
        <time>2018-12-27T11:07:02Z</time>
      </trkpt>
      <trkpt lat="43.24958" lon="5.9791">
        <ele>342.37</ele>
        <time>2018-12-27T11:07:17Z</time>
      </trkpt>
      <trkpt lat="43.24956" lon="5.97914">
        <ele>341.89</ele>
        <time>2018-12-27T11:07:35Z</time>
      </trkpt>
      <trkpt lat="43.24958" lon="5.97913">
        <ele>341.89</ele>
        <time>2018-12-27T11:07:52Z</time>
      </trkpt>
      <trkpt lat="43.24953" lon="5.97906">
        <ele>341.41</ele>
        <time>2018-12-27T11:08:06Z</time>
      </trkpt>
      <trkpt lat="43.24958" lon="5.97909">
        <ele>343.33</ele>
        <time>2018-12-27T11:08:19Z</time>
      </trkpt>
      <trkpt lat="43.24957" lon="5.97915">
        <ele>341.89</ele>
        <time>2018-12-27T11:08:41Z</time>
      </trkpt>
      <trkpt lat="43.24956" lon="5.97914">
        <ele>343.33</ele>
        <time>2018-12-27T11:09:16Z</time>
      </trkpt>
      <trkpt lat="43.24958" lon="5.97912">
        <ele>341.89</ele>
        <time>2018-12-27T11:09:31Z</time>
      </trkpt>
      <trkpt lat="43.24964" lon="5.97912">
        <ele>341.89</ele>
        <time>2018-12-27T11:09:44Z</time>
      </trkpt>
      <trkpt lat="43.24965" lon="5.9791">
        <ele>342.85</ele>
        <time>2018-12-27T11:09:56Z</time>
      </trkpt>
      <trkpt lat="43.24965" lon="5.97909">
        <ele>340.44</ele>
        <time>2018-12-27T11:09:59Z</time>
      </trkpt>
      <trkpt lat="43.2497" lon="5.97906">
        <ele>341.41</ele>
        <time>2018-12-27T11:10:19Z</time>
      </trkpt>
      <trkpt lat="43.24973" lon="5.97907">
        <ele>340.44</ele>
        <time>2018-12-27T11:10:23Z</time>
      </trkpt>
      <trkpt lat="43.24983" lon="5.97914">
        <ele>339.48</ele>
        <time>2018-12-27T11:10:40Z</time>
      </trkpt>
      <trkpt lat="43.24988" lon="5.97921">
        <ele>338.52</ele>
        <time>2018-12-27T11:10:50Z</time>
      </trkpt>
      <trkpt lat="43.24993" lon="5.97929">
        <ele>338.04</ele>
        <time>2018-12-27T11:10:59Z</time>
      </trkpt>
      <trkpt lat="43.24999" lon="5.97942">
        <ele>337.56</ele>
        <time>2018-12-27T11:11:12Z</time>
      </trkpt>
      <trkpt lat="43.25" lon="5.97949">
        <ele>336.6</ele>
        <time>2018-12-27T11:11:18Z</time>
      </trkpt>
      <trkpt lat="43.25001" lon="5.9795">
        <ele>336.6</ele>
        <time>2018-12-27T11:11:19Z</time>
      </trkpt>
      <trkpt lat="43.25003" lon="5.97955">
        <ele>335.16</ele>
        <time>2018-12-27T11:11:23Z</time>
      </trkpt>
      <trkpt lat="43.25008" lon="5.97967">
        <ele>333.23</ele>
        <time>2018-12-27T11:11:42Z</time>
      </trkpt>
      <trkpt lat="43.25018" lon="5.97985">
        <ele>330.83</ele>
        <time>2018-12-27T11:12:00Z</time>
      </trkpt>
      <trkpt lat="43.2502" lon="5.97981">
        <ele>332.75</ele>
        <time>2018-12-27T11:12:04Z</time>
      </trkpt>
      <trkpt lat="43.25021" lon="5.97977">
        <ele>330.35</ele>
        <time>2018-12-27T11:12:09Z</time>
      </trkpt>
      <trkpt lat="43.25022" lon="5.97977">
        <ele>335.64</ele>
        <time>2018-12-27T11:12:13Z</time>
      </trkpt>
      <trkpt lat="43.25022" lon="5.97976">
        <ele>335.64</ele>
        <time>2018-12-27T11:12:14Z</time>
      </trkpt>
      <trkpt lat="43.25022" lon="5.97975">
        <ele>331.79</ele>
        <time>2018-12-27T11:12:16Z</time>
      </trkpt>
      <trkpt lat="43.25022" lon="5.97975">
        <ele>331.79</ele>
        <time>2018-12-27T11:12:17Z</time>
      </trkpt>
      <trkpt lat="43.25024" lon="5.97993">
        <ele>329.87</ele>
        <time>2018-12-27T11:12:38Z</time>
      </trkpt>
      <trkpt lat="43.25026" lon="5.98004">
        <ele>328.91</ele>
        <time>2018-12-27T11:12:47Z</time>
      </trkpt>
      <trkpt lat="43.25034" lon="5.98025">
        <ele>327.95</ele>
        <time>2018-12-27T11:13:06Z</time>
      </trkpt>
      <trkpt lat="43.2504" lon="5.98049">
        <ele>324.1</ele>
        <time>2018-12-27T11:13:25Z</time>
      </trkpt>
      <trkpt lat="43.25046" lon="5.98063">
        <ele>323.14</ele>
        <time>2018-12-27T11:13:39Z</time>
      </trkpt>
      <trkpt lat="43.25057" lon="5.98079">
        <ele>320.26</ele>
        <time>2018-12-27T11:13:57Z</time>
      </trkpt>
      <trkpt lat="43.25058" lon="5.98081">
        <ele>321.7</ele>
        <time>2018-12-27T11:13:59Z</time>
      </trkpt>
      <trkpt lat="43.25067" lon="5.98089">
        <ele>319.3</ele>
        <time>2018-12-27T11:14:11Z</time>
      </trkpt>
      <trkpt lat="43.25083" lon="5.98109">
        <ele>317.37</ele>
        <time>2018-12-27T11:14:32Z</time>
      </trkpt>
      <trkpt lat="43.25091" lon="5.98133">
        <ele>314.97</ele>
        <time>2018-12-27T11:14:51Z</time>
      </trkpt>
      <trkpt lat="43.25089" lon="5.98149">
        <ele>313.05</ele>
        <time>2018-12-27T11:15:11Z</time>
      </trkpt>
      <trkpt lat="43.25089" lon="5.98165">
        <ele>311.6</ele>
        <time>2018-12-27T11:15:30Z</time>
      </trkpt>
      <trkpt lat="43.2509" lon="5.98174">
        <ele>312.57</ele>
        <time>2018-12-27T11:15:38Z</time>
      </trkpt>
      <trkpt lat="43.25092" lon="5.98182">
        <ele>313.05</ele>
        <time>2018-12-27T11:15:46Z</time>
      </trkpt>
      <trkpt lat="43.25093" lon="5.98184">
        <ele>311.6</ele>
        <time>2018-12-27T11:15:49Z</time>
      </trkpt>
      <trkpt lat="43.25085" lon="5.98195">
        <ele>312.57</ele>
        <time>2018-12-27T11:16:08Z</time>
      </trkpt>
      <trkpt lat="43.25085" lon="5.98194">
        <ele>305.84</ele>
        <time>2018-12-27T11:16:09Z</time>
      </trkpt>
      <trkpt lat="43.25085" lon="5.98194">
        <ele>311.6</ele>
        <time>2018-12-27T11:16:10Z</time>
      </trkpt>
      <trkpt lat="43.25085" lon="5.98192">
        <ele>315.45</ele>
        <time>2018-12-27T11:16:22Z</time>
      </trkpt>
      <trkpt lat="43.25085" lon="5.98191">
        <ele>311.6</ele>
        <time>2018-12-27T11:16:23Z</time>
      </trkpt>
      <trkpt lat="43.25087" lon="5.98195">
        <ele>313.05</ele>
        <time>2018-12-27T11:16:28Z</time>
      </trkpt>
      <trkpt lat="43.25088" lon="5.98197">
        <ele>311.12</ele>
        <time>2018-12-27T11:16:30Z</time>
      </trkpt>
      <trkpt lat="43.25088" lon="5.98199">
        <ele>313.53</ele>
        <time>2018-12-27T11:16:32Z</time>
      </trkpt>
      <trkpt lat="43.25087" lon="5.98201">
        <ele>313.53</ele>
        <time>2018-12-27T11:16:33Z</time>
      </trkpt>
      <trkpt lat="43.25074" lon="5.9823">
        <ele>314.49</ele>
        <time>2018-12-27T11:16:54Z</time>
      </trkpt>
      <trkpt lat="43.25071" lon="5.98233">
        <ele>315.93</ele>
        <time>2018-12-27T11:16:56Z</time>
      </trkpt>
      <trkpt lat="43.25062" lon="5.98245">
        <ele>317.37</ele>
        <time>2018-12-27T11:17:09Z</time>
      </trkpt>
      <trkpt lat="43.25046" lon="5.98259">
        <ele>316.41</ele>
        <time>2018-12-27T11:17:28Z</time>
      </trkpt>
      <trkpt lat="43.25043" lon="5.98262">
        <ele>316.89</ele>
        <time>2018-12-27T11:17:32Z</time>
      </trkpt>
      <trkpt lat="43.25039" lon="5.98266">
        <ele>315.45</ele>
        <time>2018-12-27T11:17:36Z</time>
      </trkpt>
      <trkpt lat="43.25019" lon="5.98277">
        <ele>314.01</ele>
        <time>2018-12-27T11:17:57Z</time>
      </trkpt>
      <trkpt lat="43.2501" lon="5.98287">
        <ele>313.05</ele>
        <time>2018-12-27T11:18:15Z</time>
      </trkpt>
      <trkpt lat="43.25008" lon="5.98289">
        <ele>314.49</ele>
        <time>2018-12-27T11:18:17Z</time>
      </trkpt>
      <trkpt lat="43.24993" lon="5.98306">
        <ele>311.6</ele>
        <time>2018-12-27T11:18:39Z</time>
      </trkpt>
      <trkpt lat="43.2498" lon="5.9832">
        <ele>311.12</ele>
        <time>2018-12-27T11:19:01Z</time>
      </trkpt>
      <trkpt lat="43.2498" lon="5.98324">
        <ele>310.64</ele>
        <time>2018-12-27T11:19:26Z</time>
      </trkpt>
      <trkpt lat="43.24979" lon="5.98325">
        <ele>310.64</ele>
        <time>2018-12-27T11:19:27Z</time>
      </trkpt>
      <trkpt lat="43.24956" lon="5.98341">
        <ele>308.24</ele>
        <time>2018-12-27T11:19:50Z</time>
      </trkpt>
      <trkpt lat="43.24944" lon="5.98359">
        <ele>307.28</ele>
        <time>2018-12-27T11:20:10Z</time>
      </trkpt>
      <trkpt lat="43.24935" lon="5.98377">
        <ele>307.28</ele>
        <time>2018-12-27T11:20:23Z</time>
      </trkpt>
      <trkpt lat="43.2493" lon="5.98407">
        <ele>306.32</ele>
        <time>2018-12-27T11:20:44Z</time>
      </trkpt>
      <trkpt lat="43.24947" lon="5.98429">
        <ele>305.84</ele>
        <time>2018-12-27T11:21:06Z</time>
      </trkpt>
      <trkpt lat="43.24964" lon="5.98449">
        <ele>304.39</ele>
        <time>2018-12-27T11:21:26Z</time>
      </trkpt>
      <trkpt lat="43.24967" lon="5.98453">
        <ele>304.88</ele>
        <time>2018-12-27T11:21:30Z</time>
      </trkpt>
      <trkpt lat="43.24969" lon="5.98456">
        <ele>303.43</ele>
        <time>2018-12-27T11:21:33Z</time>
      </trkpt>
      <trkpt lat="43.24982" lon="5.98474">
        <ele>303.91</ele>
        <time>2018-12-27T11:21:50Z</time>
      </trkpt>
      <trkpt lat="43.24986" lon="5.98503">
        <ele>301.51</ele>
        <time>2018-12-27T11:22:10Z</time>
      </trkpt>
      <trkpt lat="43.24985" lon="5.98533">
        <ele>299.59</ele>
        <time>2018-12-27T11:22:30Z</time>
      </trkpt>
      <trkpt lat="43.24991" lon="5.98549">
        <ele>298.63</ele>
        <time>2018-12-27T11:22:42Z</time>
      </trkpt>
      <trkpt lat="43.25008" lon="5.98561">
        <ele>296.7</ele>
        <time>2018-12-27T11:23:01Z</time>
      </trkpt>
      <trkpt lat="43.25027" lon="5.9856">
        <ele>294.78</ele>
        <time>2018-12-27T11:23:21Z</time>
      </trkpt>
      <trkpt lat="43.25026" lon="5.98559">
        <ele>294.78</ele>
        <time>2018-12-27T11:23:57Z</time>
      </trkpt>
      <trkpt lat="43.25038" lon="5.98564">
        <ele>293.34</ele>
        <time>2018-12-27T11:24:15Z</time>
      </trkpt>
      <trkpt lat="43.25044" lon="5.98566">
        <ele>290.94</ele>
        <time>2018-12-27T11:24:25Z</time>
      </trkpt>
      <trkpt lat="43.25054" lon="5.98567">
        <ele>288.53</ele>
        <time>2018-12-27T11:24:39Z</time>
      </trkpt>
      <trkpt lat="43.25069" lon="5.98583">
        <ele>285.17</ele>
        <time>2018-12-27T11:24:59Z</time>
      </trkpt>
      <trkpt lat="43.25073" lon="5.98614">
        <ele>283.25</ele>
        <time>2018-12-27T11:25:19Z</time>
      </trkpt>
      <trkpt lat="43.25073" lon="5.98634">
        <ele>281.32</ele>
        <time>2018-12-27T11:25:35Z</time>
      </trkpt>
      <trkpt lat="43.25069" lon="5.98663">
        <ele>279.4</ele>
        <time>2018-12-27T11:25:56Z</time>
      </trkpt>
      <trkpt lat="43.25067" lon="5.98675">
        <ele>277.96</ele>
        <time>2018-12-27T11:26:06Z</time>
      </trkpt>
      <trkpt lat="43.25066" lon="5.98685">
        <ele>279.4</ele>
        <time>2018-12-27T11:26:13Z</time>
      </trkpt>
      <trkpt lat="43.25064" lon="5.98691">
        <ele>277.96</ele>
        <time>2018-12-27T11:26:20Z</time>
      </trkpt>
      <trkpt lat="43.2506" lon="5.98704">
        <ele>278.44</ele>
        <time>2018-12-27T11:26:28Z</time>
      </trkpt>
      <trkpt lat="43.25059" lon="5.98719">
        <ele>277.48</ele>
        <time>2018-12-27T11:26:41Z</time>
      </trkpt>
      <trkpt lat="43.25056" lon="5.9872">
        <ele>279.4</ele>
        <time>2018-12-27T11:26:47Z</time>
      </trkpt>
      <trkpt lat="43.25055" lon="5.98722">
        <ele>278.92</ele>
        <time>2018-12-27T11:26:48Z</time>
      </trkpt>
      <trkpt lat="43.25052" lon="5.98727">
        <ele>278.92</ele>
        <time>2018-12-27T11:26:53Z</time>
      </trkpt>
      <trkpt lat="43.25052" lon="5.98728">
        <ele>279.88</ele>
        <time>2018-12-27T11:26:54Z</time>
      </trkpt>
      <trkpt lat="43.25051" lon="5.98731">
        <ele>280.84</ele>
        <time>2018-12-27T11:26:56Z</time>
      </trkpt>
      <trkpt lat="43.25042" lon="5.98738">
        <ele>280.84</ele>
        <time>2018-12-27T11:27:12Z</time>
      </trkpt>
      <trkpt lat="43.2504" lon="5.98736">
        <ele>279.88</ele>
        <time>2018-12-27T11:27:26Z</time>
      </trkpt>
      <trkpt lat="43.2504" lon="5.98736">
        <ele>280.84</ele>
        <time>2018-12-27T11:27:28Z</time>
      </trkpt>
      <trkpt lat="43.25039" lon="5.98735">
        <ele>282.28</ele>
        <time>2018-12-27T11:27:37Z</time>
      </trkpt>
      <trkpt lat="43.25039" lon="5.98735">
        <ele>280.84</ele>
        <time>2018-12-27T11:27:39Z</time>
      </trkpt>
      <trkpt lat="43.25039" lon="5.98737">
        <ele>280.84</ele>
        <time>2018-12-27T11:27:59Z</time>
      </trkpt>
      <trkpt lat="43.25038" lon="5.98737">
        <ele>280.36</ele>
        <time>2018-12-27T11:28:08Z</time>
      </trkpt>
      <trkpt lat="43.25036" lon="5.98736">
        <ele>281.8</ele>
        <time>2018-12-27T11:28:10Z</time>
      </trkpt>
      <trkpt lat="43.25028" lon="5.9873">
        <ele>282.28</ele>
        <time>2018-12-27T11:28:21Z</time>
      </trkpt>
      <trkpt lat="43.25026" lon="5.98729">
        <ele>282.28</ele>
        <time>2018-12-27T11:28:22Z</time>
      </trkpt>
      <trkpt lat="43.25016" lon="5.98723">
        <ele>281.32</ele>
        <time>2018-12-27T11:28:35Z</time>
      </trkpt>
      <trkpt lat="43.25015" lon="5.98722">
        <ele>281.32</ele>
        <time>2018-12-27T11:28:36Z</time>
      </trkpt>
      <trkpt lat="43.25014" lon="5.98721">
        <ele>282.28</ele>
        <time>2018-12-27T11:28:37Z</time>
      </trkpt>
      <trkpt lat="43.25011" lon="5.9872">
        <ele>281.32</ele>
        <time>2018-12-27T11:28:40Z</time>
      </trkpt>
      <trkpt lat="43.25003" lon="5.98716">
        <ele>282.28</ele>
        <time>2018-12-27T11:28:49Z</time>
      </trkpt>
      <trkpt lat="43.25002" lon="5.98716">
        <ele>282.28</ele>
        <time>2018-12-27T11:28:50Z</time>
      </trkpt>
      <trkpt lat="43.25001" lon="5.98716">
        <ele>282.28</ele>
        <time>2018-12-27T11:28:51Z</time>
      </trkpt>
      <trkpt lat="43.24996" lon="5.98713">
        <ele>280.36</ele>
        <time>2018-12-27T11:28:56Z</time>
      </trkpt>
      <trkpt lat="43.24994" lon="5.98711">
        <ele>281.8</ele>
        <time>2018-12-27T11:28:58Z</time>
      </trkpt>
      <trkpt lat="43.24992" lon="5.9871">
        <ele>280.36</ele>
        <time>2018-12-27T11:29:00Z</time>
      </trkpt>
      <trkpt lat="43.2499" lon="5.9871">
        <ele>280.36</ele>
        <time>2018-12-27T11:29:02Z</time>
      </trkpt>
      <trkpt lat="43.24988" lon="5.9871">
        <ele>280.36</ele>
        <time>2018-12-27T11:29:04Z</time>
      </trkpt>
      <trkpt lat="43.24987" lon="5.9871">
        <ele>280.36</ele>
        <time>2018-12-27T11:29:05Z</time>
      </trkpt>
      <trkpt lat="43.24986" lon="5.98709">
        <ele>280.36</ele>
        <time>2018-12-27T11:29:06Z</time>
      </trkpt>
      <trkpt lat="43.24981" lon="5.98709">
        <ele>280.36</ele>
        <time>2018-12-27T11:29:11Z</time>
      </trkpt>
      <trkpt lat="43.24978" lon="5.9871">
        <ele>280.84</ele>
        <time>2018-12-27T11:29:15Z</time>
      </trkpt>
      <trkpt lat="43.24975" lon="5.9871">
        <ele>279.88</ele>
        <time>2018-12-27T11:29:20Z</time>
      </trkpt>
      <trkpt lat="43.2497" lon="5.98714">
        <ele>280.36</ele>
        <time>2018-12-27T11:29:30Z</time>
      </trkpt>
      <trkpt lat="43.24963" lon="5.98722">
        <ele>279.88</ele>
        <time>2018-12-27T11:29:40Z</time>
      </trkpt>
      <trkpt lat="43.24958" lon="5.98721">
        <ele>277.96</ele>
        <time>2018-12-27T11:29:44Z</time>
      </trkpt>
      <trkpt lat="43.24955" lon="5.98722">
        <ele>279.4</ele>
        <time>2018-12-27T11:29:47Z</time>
      </trkpt>
      <trkpt lat="43.24949" lon="5.98728">
        <ele>277.96</ele>
        <time>2018-12-27T11:29:54Z</time>
      </trkpt>
      <trkpt lat="43.24947" lon="5.98728">
        <ele>279.4</ele>
        <time>2018-12-27T11:29:56Z</time>
      </trkpt>
      <trkpt lat="43.24943" lon="5.98731">
        <ele>278.44</ele>
        <time>2018-12-27T11:30:02Z</time>
      </trkpt>
      <trkpt lat="43.2493" lon="5.9874">
        <ele>279.4</ele>
        <time>2018-12-27T11:30:20Z</time>
      </trkpt>
      <trkpt lat="43.24922" lon="5.9875">
        <ele>279.4</ele>
        <time>2018-12-27T11:30:35Z</time>
      </trkpt>
      <trkpt lat="43.24918" lon="5.98759">
        <ele>278.44</ele>
        <time>2018-12-27T11:30:56Z</time>
      </trkpt>
      <trkpt lat="43.24922" lon="5.98756">
        <ele>279.4</ele>
        <time>2018-12-27T11:31:01Z</time>
      </trkpt>
      <trkpt lat="43.24925" lon="5.98753">
        <ele>279.88</ele>
        <time>2018-12-27T11:31:15Z</time>
      </trkpt>
      <trkpt lat="43.24924" lon="5.98752">
        <ele>278.44</ele>
        <time>2018-12-27T11:31:36Z</time>
      </trkpt>
      <trkpt lat="43.24919" lon="5.98754">
        <ele>278.44</ele>
        <time>2018-12-27T11:31:52Z</time>
      </trkpt>
      <trkpt lat="43.2492" lon="5.98756">
        <ele>279.4</ele>
        <time>2018-12-27T11:32:07Z</time>
      </trkpt>
      <trkpt lat="43.24917" lon="5.98756">
        <ele>277.96</ele>
        <time>2018-12-27T11:32:16Z</time>
      </trkpt>
      <trkpt lat="43.24916" lon="5.98757">
        <ele>277.96</ele>
        <time>2018-12-27T11:32:18Z</time>
      </trkpt>
      <trkpt lat="43.24914" lon="5.98758">
        <ele>279.4</ele>
        <time>2018-12-27T11:32:20Z</time>
      </trkpt>
      <trkpt lat="43.24912" lon="5.98759">
        <ele>277.48</ele>
        <time>2018-12-27T11:32:22Z</time>
      </trkpt>
      <trkpt lat="43.24905" lon="5.98773">
        <ele>277</ele>
        <time>2018-12-27T11:32:38Z</time>
      </trkpt>
      <trkpt lat="43.24901" lon="5.98776">
        <ele>276.04</ele>
        <time>2018-12-27T11:32:43Z</time>
      </trkpt>
      <trkpt lat="43.24899" lon="5.98777">
        <ele>277</ele>
        <time>2018-12-27T11:32:45Z</time>
      </trkpt>
      <trkpt lat="43.24894" lon="5.98777">
        <ele>275.07</ele>
        <time>2018-12-27T11:32:49Z</time>
      </trkpt>
      <trkpt lat="43.24887" lon="5.9877">
        <ele>277</ele>
        <time>2018-12-27T11:32:56Z</time>
      </trkpt>
      <trkpt lat="43.24887" lon="5.98767">
        <ele>275.07</ele>
        <time>2018-12-27T11:32:58Z</time>
      </trkpt>
      <trkpt lat="43.24886" lon="5.98765">
        <ele>276.04</ele>
        <time>2018-12-27T11:33:00Z</time>
      </trkpt>
      <trkpt lat="43.24885" lon="5.98761">
        <ele>275.07</ele>
        <time>2018-12-27T11:33:03Z</time>
      </trkpt>
      <trkpt lat="43.24885" lon="5.98759">
        <ele>276.52</ele>
        <time>2018-12-27T11:33:05Z</time>
      </trkpt>
      <trkpt lat="43.24882" lon="5.98752">
        <ele>274.59</ele>
        <time>2018-12-27T11:33:11Z</time>
      </trkpt>
      <trkpt lat="43.24877" lon="5.98739">
        <ele>276.04</ele>
        <time>2018-12-27T11:33:23Z</time>
      </trkpt>
      <trkpt lat="43.24874" lon="5.98734">
        <ele>274.11</ele>
        <time>2018-12-27T11:33:27Z</time>
      </trkpt>
      <trkpt lat="43.24857" lon="5.98716">
        <ele>274.11</ele>
        <time>2018-12-27T11:33:45Z</time>
      </trkpt>
      <trkpt lat="43.24854" lon="5.98714">
        <ele>275.56</ele>
        <time>2018-12-27T11:33:48Z</time>
      </trkpt>
      <trkpt lat="43.24839" lon="5.987">
        <ele>273.15</ele>
        <time>2018-12-27T11:34:03Z</time>
      </trkpt>
      <trkpt lat="43.24817" lon="5.98697">
        <ele>270.75</ele>
        <time>2018-12-27T11:34:24Z</time>
      </trkpt>
      <trkpt lat="43.24809" lon="5.98698">
        <ele>268.35</ele>
        <time>2018-12-27T11:34:32Z</time>
      </trkpt>
      <trkpt lat="43.24806" lon="5.98698">
        <ele>269.79</ele>
        <time>2018-12-27T11:34:34Z</time>
      </trkpt>
      <trkpt lat="43.24803" lon="5.98701">
        <ele>267.86</ele>
        <time>2018-12-27T11:34:39Z</time>
      </trkpt>
      <trkpt lat="43.24785" lon="5.98711">
        <ele>264.98</ele>
        <time>2018-12-27T11:34:55Z</time>
      </trkpt>
      <trkpt lat="43.24776" lon="5.98721">
        <ele>265.94</ele>
        <time>2018-12-27T11:35:04Z</time>
      </trkpt>
      <trkpt lat="43.24775" lon="5.98722">
        <ele>265.46</ele>
        <time>2018-12-27T11:35:05Z</time>
      </trkpt>
      <trkpt lat="43.2476" lon="5.98737">
        <ele>264.02</ele>
        <time>2018-12-27T11:35:24Z</time>
      </trkpt>
      <trkpt lat="43.2475" lon="5.98751">
        <ele>261.62</ele>
        <time>2018-12-27T11:35:39Z</time>
      </trkpt>
      <trkpt lat="43.24739" lon="5.98762">
        <ele>260.65</ele>
        <time>2018-12-27T11:35:51Z</time>
      </trkpt>
      <trkpt lat="43.24728" lon="5.98787">
        <ele>259.21</ele>
        <time>2018-12-27T11:36:10Z</time>
      </trkpt>
      <trkpt lat="43.24724" lon="5.98801">
        <ele>259.21</ele>
        <time>2018-12-27T11:36:20Z</time>
      </trkpt>
      <trkpt lat="43.24722" lon="5.98815">
        <ele>259.21</ele>
        <time>2018-12-27T11:36:29Z</time>
      </trkpt>
      <trkpt lat="43.2472" lon="5.98822">
        <ele>260.17</ele>
        <time>2018-12-27T11:36:40Z</time>
      </trkpt>
      <trkpt lat="43.24719" lon="5.98831">
        <ele>260.65</ele>
        <time>2018-12-27T11:36:59Z</time>
      </trkpt>
      <trkpt lat="43.24718" lon="5.98835">
        <ele>260.65</ele>
        <time>2018-12-27T11:37:03Z</time>
      </trkpt>
      <trkpt lat="43.24717" lon="5.98847">
        <ele>261.14</ele>
        <time>2018-12-27T11:37:11Z</time>
      </trkpt>
      <trkpt lat="43.24717" lon="5.98851">
        <ele>262.1</ele>
        <time>2018-12-27T11:37:15Z</time>
      </trkpt>
      <trkpt lat="43.24717" lon="5.98856">
        <ele>262.58</ele>
        <time>2018-12-27T11:37:19Z</time>
      </trkpt>
      <trkpt lat="43.24718" lon="5.98874">
        <ele>263.54</ele>
        <time>2018-12-27T11:37:31Z</time>
      </trkpt>
      <trkpt lat="43.24719" lon="5.98889">
        <ele>264.5</ele>
        <time>2018-12-27T11:37:43Z</time>
      </trkpt>
      <trkpt lat="43.24719" lon="5.98904">
        <ele>264.5</ele>
        <time>2018-12-27T11:37:53Z</time>
      </trkpt>
      <trkpt lat="43.24717" lon="5.98917">
        <ele>264.5</ele>
        <time>2018-12-27T11:38:01Z</time>
      </trkpt>
      <trkpt lat="43.24717" lon="5.98919">
        <ele>264.5</ele>
        <time>2018-12-27T11:38:02Z</time>
      </trkpt>
      <trkpt lat="43.24713" lon="5.98935">
        <ele>264.5</ele>
        <time>2018-12-27T11:38:11Z</time>
      </trkpt>
      <trkpt lat="43.24711" lon="5.98956">
        <ele>263.54</ele>
        <time>2018-12-27T11:38:25Z</time>
      </trkpt>
      <trkpt lat="43.24706" lon="5.98977">
        <ele>263.06</ele>
        <time>2018-12-27T11:38:37Z</time>
      </trkpt>
      <trkpt lat="43.24699" lon="5.99003">
        <ele>262.58</ele>
        <time>2018-12-27T11:38:54Z</time>
      </trkpt>
      <trkpt lat="43.24699" lon="5.99004">
        <ele>262.58</ele>
        <time>2018-12-27T11:38:55Z</time>
      </trkpt>
      <trkpt lat="43.24697" lon="5.99008">
        <ele>262.58</ele>
        <time>2018-12-27T11:38:57Z</time>
      </trkpt>
      <trkpt lat="43.24697" lon="5.9901">
        <ele>262.58</ele>
        <time>2018-12-27T11:38:58Z</time>
      </trkpt>
      <trkpt lat="43.24696" lon="5.99012">
        <ele>262.1</ele>
        <time>2018-12-27T11:38:59Z</time>
      </trkpt>
      <trkpt lat="43.24696" lon="5.99014">
        <ele>262.58</ele>
        <time>2018-12-27T11:39:00Z</time>
      </trkpt>
      <trkpt lat="43.24695" lon="5.99015">
        <ele>262.1</ele>
        <time>2018-12-27T11:39:01Z</time>
      </trkpt>
      <trkpt lat="43.24688" lon="5.99042">
        <ele>263.54</ele>
        <time>2018-12-27T11:39:21Z</time>
      </trkpt>
      <trkpt lat="43.24687" lon="5.99049">
        <ele>263.06</ele>
        <time>2018-12-27T11:39:25Z</time>
      </trkpt>
      <trkpt lat="43.24683" lon="5.99064">
        <ele>263.54</ele>
        <time>2018-12-27T11:39:36Z</time>
      </trkpt>
      <trkpt lat="43.24678" lon="5.9908">
        <ele>263.54</ele>
        <time>2018-12-27T11:39:45Z</time>
      </trkpt>
      <trkpt lat="43.24677" lon="5.99089">
        <ele>264.02</ele>
        <time>2018-12-27T11:39:55Z</time>
      </trkpt>
      <trkpt lat="43.24676" lon="5.9909">
        <ele>264.02</ele>
        <time>2018-12-27T11:39:56Z</time>
      </trkpt>
      <trkpt lat="43.24672" lon="5.99095">
        <ele>261.62</ele>
        <time>2018-12-27T11:40:02Z</time>
      </trkpt>
      <trkpt lat="43.24665" lon="5.99108">
        <ele>258.73</ele>
        <time>2018-12-27T11:40:17Z</time>
      </trkpt>
      <trkpt lat="43.24659" lon="5.99115">
        <ele>255.37</ele>
        <time>2018-12-27T11:40:29Z</time>
      </trkpt>
      <trkpt lat="43.24657" lon="5.99118">
        <ele>257.29</ele>
        <time>2018-12-27T11:40:37Z</time>
      </trkpt>
      <trkpt lat="43.24657" lon="5.99118">
        <ele>255.85</ele>
        <time>2018-12-27T11:40:39Z</time>
      </trkpt>
      <trkpt lat="43.24652" lon="5.99122">
        <ele>254.41</ele>
        <time>2018-12-27T11:41:09Z</time>
      </trkpt>
      <trkpt lat="43.24645" lon="5.99132">
        <ele>251.52</ele>
        <time>2018-12-27T11:41:27Z</time>
      </trkpt>
      <trkpt lat="43.24638" lon="5.99143">
        <ele>249.12</ele>
        <time>2018-12-27T11:41:40Z</time>
      </trkpt>
      <trkpt lat="43.24633" lon="5.99151">
        <ele>247.2</ele>
        <time>2018-12-27T11:41:48Z</time>
      </trkpt>
      <trkpt lat="43.24629" lon="5.99153">
        <ele>245.75</ele>
        <time>2018-12-27T11:41:53Z</time>
      </trkpt>
      <trkpt lat="43.24622" lon="5.99165">
        <ele>244.79</ele>
        <time>2018-12-27T11:42:12Z</time>
      </trkpt>
      <trkpt lat="43.24612" lon="5.99189">
        <ele>243.35</ele>
        <time>2018-12-27T11:42:32Z</time>
      </trkpt>
      <trkpt lat="43.24611" lon="5.99192">
        <ele>244.79</ele>
        <time>2018-12-27T11:42:34Z</time>
      </trkpt>
      <trkpt lat="43.24611" lon="5.99193">
        <ele>243.35</ele>
        <time>2018-12-27T11:42:36Z</time>
      </trkpt>
      <trkpt lat="43.246" lon="5.99219">
        <ele>239.99</ele>
        <time>2018-12-27T11:42:58Z</time>
      </trkpt>
      <trkpt lat="43.24588" lon="5.99241">
        <ele>237.1</ele>
        <time>2018-12-27T11:43:22Z</time>
      </trkpt>
      <trkpt lat="43.24576" lon="5.99276">
        <ele>234.7</ele>
        <time>2018-12-27T11:43:47Z</time>
      </trkpt>
      <trkpt lat="43.24572" lon="5.99283">
        <ele>231.81</ele>
        <time>2018-12-27T11:43:55Z</time>
      </trkpt>
      <trkpt lat="43.24572" lon="5.99284">
        <ele>231.81</ele>
        <time>2018-12-27T11:43:56Z</time>
      </trkpt>
      <trkpt lat="43.24564" lon="5.99307">
        <ele>228.45</ele>
        <time>2018-12-27T11:44:13Z</time>
      </trkpt>
      <trkpt lat="43.2456" lon="5.99319">
        <ele>226.53</ele>
        <time>2018-12-27T11:44:38Z</time>
      </trkpt>
      <trkpt lat="43.2455" lon="5.99334">
        <ele>226.05</ele>
        <time>2018-12-27T11:45:02Z</time>
      </trkpt>
      <trkpt lat="43.24549" lon="5.99341">
        <ele>224.12</ele>
        <time>2018-12-27T11:45:08Z</time>
      </trkpt>
      <trkpt lat="43.24542" lon="5.99373">
        <ele>222.68</ele>
        <time>2018-12-27T11:45:34Z</time>
      </trkpt>
      <trkpt lat="43.24535" lon="5.99387">
        <ele>219.32</ele>
        <time>2018-12-27T11:45:47Z</time>
      </trkpt>
      <trkpt lat="43.24533" lon="5.99388">
        <ele>218.36</ele>
        <time>2018-12-27T11:45:49Z</time>
      </trkpt>
      <trkpt lat="43.24523" lon="5.99401">
        <ele>214.99</ele>
        <time>2018-12-27T11:46:10Z</time>
      </trkpt>
      <trkpt lat="43.24512" lon="5.99419">
        <ele>213.07</ele>
        <time>2018-12-27T11:46:33Z</time>
      </trkpt>
      <trkpt lat="43.24508" lon="5.99422">
        <ele>213.07</ele>
        <time>2018-12-27T11:46:46Z</time>
      </trkpt>
      <trkpt lat="43.24509" lon="5.99442">
        <ele>213.55</ele>
        <time>2018-12-27T11:47:08Z</time>
      </trkpt>
      <trkpt lat="43.24508" lon="5.99442">
        <ele>212.11</ele>
        <time>2018-12-27T11:47:13Z</time>
      </trkpt>
      <trkpt lat="43.24509" lon="5.99446">
        <ele>213.07</ele>
        <time>2018-12-27T11:47:18Z</time>
      </trkpt>
      <trkpt lat="43.24509" lon="5.99454">
        <ele>212.59</ele>
        <time>2018-12-27T11:47:24Z</time>
      </trkpt>
      <trkpt lat="43.24508" lon="5.9946">
        <ele>211.15</ele>
        <time>2018-12-27T11:47:27Z</time>
      </trkpt>
      <trkpt lat="43.24504" lon="5.99475">
        <ele>210.19</ele>
        <time>2018-12-27T11:47:40Z</time>
      </trkpt>
      <trkpt lat="43.245" lon="5.9949">
        <ele>208.26</ele>
        <time>2018-12-27T11:48:02Z</time>
      </trkpt>
      <trkpt lat="43.24502" lon="5.99514">
        <ele>205.86</ele>
        <time>2018-12-27T11:48:21Z</time>
      </trkpt>
      <trkpt lat="43.245" lon="5.99533">
        <ele>202.98</ele>
        <time>2018-12-27T11:48:34Z</time>
      </trkpt>
      <trkpt lat="43.24496" lon="5.99547">
        <ele>200.57</ele>
        <time>2018-12-27T11:48:46Z</time>
      </trkpt>
      <trkpt lat="43.24494" lon="5.9956">
        <ele>198.17</ele>
        <time>2018-12-27T11:49:02Z</time>
      </trkpt>
      <trkpt lat="43.24493" lon="5.99568">
        <ele>196.25</ele>
        <time>2018-12-27T11:49:10Z</time>
      </trkpt>
      <trkpt lat="43.2449" lon="5.99591">
        <ele>193.36</ele>
        <time>2018-12-27T11:49:25Z</time>
      </trkpt>
      <trkpt lat="43.2449" lon="5.99601">
        <ele>193.36</ele>
        <time>2018-12-27T11:49:30Z</time>
      </trkpt>
      <trkpt lat="43.2449" lon="5.99614">
        <ele>191.92</ele>
        <time>2018-12-27T11:49:46Z</time>
      </trkpt>
      <trkpt lat="43.2449" lon="5.99628">
        <ele>190.96</ele>
        <time>2018-12-27T11:50:02Z</time>
      </trkpt>
      <trkpt lat="43.24487" lon="5.99632">
        <ele>190</ele>
        <time>2018-12-27T11:50:10Z</time>
      </trkpt>
      <trkpt lat="43.24487" lon="5.99635">
        <ele>190</ele>
        <time>2018-12-27T11:50:11Z</time>
      </trkpt>
      <trkpt lat="43.24487" lon="5.99641">
        <ele>189.52</ele>
        <time>2018-12-27T11:50:21Z</time>
      </trkpt>
      <trkpt lat="43.2449" lon="5.99647">
        <ele>189.04</ele>
        <time>2018-12-27T11:50:40Z</time>
      </trkpt>
      <trkpt lat="43.24489" lon="5.99648">
        <ele>188.08</ele>
        <time>2018-12-27T11:50:41Z</time>
      </trkpt>
      <trkpt lat="43.24488" lon="5.99651">
        <ele>188.08</ele>
        <time>2018-12-27T11:50:44Z</time>
      </trkpt>
      <trkpt lat="43.24488" lon="5.99653">
        <ele>187.59</ele>
        <time>2018-12-27T11:50:45Z</time>
      </trkpt>
      <trkpt lat="43.24488" lon="5.99655">
        <ele>187.59</ele>
        <time>2018-12-27T11:50:46Z</time>
      </trkpt>
      <trkpt lat="43.24489" lon="5.99656">
        <ele>187.59</ele>
        <time>2018-12-27T11:50:47Z</time>
      </trkpt>
      <trkpt lat="43.2449" lon="5.99658">
        <ele>187.11</ele>
        <time>2018-12-27T11:50:48Z</time>
      </trkpt>
      <trkpt lat="43.24492" lon="5.99675">
        <ele>185.19</ele>
        <time>2018-12-27T11:51:02Z</time>
      </trkpt>
      <trkpt lat="43.2449" lon="5.99689">
        <ele>184.23</ele>
        <time>2018-12-27T11:51:16Z</time>
      </trkpt>
      <trkpt lat="43.2449" lon="5.99691">
        <ele>184.23</ele>
        <time>2018-12-27T11:51:17Z</time>
      </trkpt>
      <trkpt lat="43.24496" lon="5.99708">
        <ele>184.23</ele>
        <time>2018-12-27T11:51:31Z</time>
      </trkpt>
      <trkpt lat="43.24496" lon="5.9971">
        <ele>184.23</ele>
        <time>2018-12-27T11:51:33Z</time>
      </trkpt>
      <trkpt lat="43.24495" lon="5.99712">
        <ele>184.23</ele>
        <time>2018-12-27T11:51:34Z</time>
      </trkpt>
      <trkpt lat="43.24496" lon="5.99717">
        <ele>183.27</ele>
        <time>2018-12-27T11:51:38Z</time>
      </trkpt>
      <trkpt lat="43.24496" lon="5.99724">
        <ele>182.31</ele>
        <time>2018-12-27T11:51:47Z</time>
      </trkpt>
      <trkpt lat="43.24498" lon="5.99726">
        <ele>181.83</ele>
        <time>2018-12-27T11:52:14Z</time>
      </trkpt>
      <trkpt lat="43.24502" lon="5.99734">
        <ele>180.87</ele>
        <time>2018-12-27T11:52:24Z</time>
      </trkpt>
      <trkpt lat="43.24507" lon="5.99751">
        <ele>177.02</ele>
        <time>2018-12-27T11:52:34Z</time>
      </trkpt>
      <trkpt lat="43.24507" lon="5.99759">
        <ele>177.02</ele>
        <time>2018-12-27T11:52:41Z</time>
      </trkpt>
      <trkpt lat="43.24506" lon="5.99761">
        <ele>178.46</ele>
        <time>2018-12-27T11:52:43Z</time>
      </trkpt>
      <trkpt lat="43.24498" lon="5.99779">
        <ele>174.14</ele>
        <time>2018-12-27T11:52:59Z</time>
      </trkpt>
      <trkpt lat="43.24497" lon="5.9978">
        <ele>174.14</ele>
        <time>2018-12-27T11:53:00Z</time>
      </trkpt>
      <trkpt lat="43.24487" lon="5.99788">
        <ele>171.25</ele>
        <time>2018-12-27T11:53:16Z</time>
      </trkpt>
      <trkpt lat="43.24496" lon="5.99813">
        <ele>170.29</ele>
        <time>2018-12-27T11:53:38Z</time>
      </trkpt>
      <trkpt lat="43.24495" lon="5.99837">
        <ele>168.85</ele>
        <time>2018-12-27T11:53:55Z</time>
      </trkpt>
      <trkpt lat="43.24497" lon="5.99841">
        <ele>167.41</ele>
        <time>2018-12-27T11:53:58Z</time>
      </trkpt>
      <trkpt lat="43.24502" lon="5.99847">
        <ele>167.41</ele>
        <time>2018-12-27T11:54:02Z</time>
      </trkpt>
      <trkpt lat="43.24522" lon="5.99864">
        <ele>168.85</ele>
        <time>2018-12-27T11:54:23Z</time>
      </trkpt>
      <trkpt lat="43.24534" lon="5.99881">
        <ele>169.33</ele>
        <time>2018-12-27T11:54:39Z</time>
      </trkpt>
      <trkpt lat="43.24539" lon="5.99904">
        <ele>166.93</ele>
        <time>2018-12-27T11:54:59Z</time>
      </trkpt>
      <trkpt lat="43.24549" lon="5.99925">
        <ele>164.04</ele>
        <time>2018-12-27T11:55:19Z</time>
      </trkpt>
      <trkpt lat="43.24557" lon="5.99951">
        <ele>163.56</ele>
        <time>2018-12-27T11:55:39Z</time>
      </trkpt>
      <trkpt lat="43.24558" lon="5.9996">
        <ele>161.64</ele>
        <time>2018-12-27T11:55:44Z</time>
      </trkpt>
      <trkpt lat="43.24555" lon="5.99967">
        <ele>159.24</ele>
        <time>2018-12-27T11:55:58Z</time>
      </trkpt>
      <trkpt lat="43.24538" lon="5.99986">
        <ele>158.75</ele>
        <time>2018-12-27T11:56:19Z</time>
      </trkpt>
      <trkpt lat="43.24531" lon="5.99998">
        <ele>157.79</ele>
        <time>2018-12-27T11:56:39Z</time>
      </trkpt>
      <trkpt lat="43.24517" lon="6.00019">
        <ele>156.35</ele>
        <time>2018-12-27T11:57:00Z</time>
      </trkpt>
      <trkpt lat="43.24502" lon="6.00034">
        <ele>155.87</ele>
        <time>2018-12-27T11:57:21Z</time>
      </trkpt>
      <trkpt lat="43.24501" lon="6.00033">
        <ele>156.83</ele>
        <time>2018-12-27T11:57:45Z</time>
      </trkpt>
      <trkpt lat="43.24485" lon="6.00034">
        <ele>156.83</ele>
        <time>2018-12-27T11:58:09Z</time>
      </trkpt>
      <trkpt lat="43.24472" lon="6.00032">
        <ele>155.39</ele>
        <time>2018-12-27T11:58:18Z</time>
      </trkpt>
      <trkpt lat="43.24467" lon="6.00031">
        <ele>154.91</ele>
        <time>2018-12-27T11:58:36Z</time>
      </trkpt>
      <trkpt lat="43.24452" lon="6.00032">
        <ele>154.91</ele>
        <time>2018-12-27T11:58:55Z</time>
      </trkpt>
      <trkpt lat="43.24452" lon="6.00032">
        <ele>157.31</ele>
        <time>2018-12-27T11:59:01Z</time>
      </trkpt>
      <trkpt lat="43.24445" lon="6.00039">
        <ele>157.79</ele>
        <time>2018-12-27T11:59:18Z</time>
      </trkpt>
    </trkseg>
  </trk>
</gpx>